<?xml version="1.0" encoding="UTF-8" standalone="no" ?>
<gpx xmlns="http://www.topografix.com/GPX/1/1" creator="MapSource 6.16.3" version="1.1" xmlns:xsi="http://www.w3.org/2001/XMLSchema-instance" xsi:schemaLocation="http://www.topografix.com/GPX/1/1 http://www.topografix.com/GPX/1/1/gpx.xsd">

  <metadata>
    <link href="http://www.garmin.com">
      <text>Garmin International</text>
    </link>
    <time>2016-09-06T14:46:56Z</time>
    <bounds maxlat="44.397275364026427" maxlon="11.394689083099365" minlat="44.315305380150676" minlon="11.353769302368164"/>
  </metadata>

  <trk>
    <name>ACTIVE LOG</name>
    <trkseg>
      <trkpt lat="44.397232532501221" lon="11.39406681060791">
        <ele>104</ele>
        <time>1989-12-31T00:00:00Z</time>
      </trkpt>
      <trkpt lat="44.397189617156982" lon="11.394689083099365">
        <ele>104</ele>
        <time>2004-03-21T07:37:35Z</time>
      </trkpt>
      <trkpt lat="44.396696090698242" lon="11.39460333622992">
        <ele>105</ele>
        <time>2004-03-21T07:37:51Z</time>
      </trkpt>
      <trkpt lat="44.396331310272217" lon="11.394345760345459">
        <ele>106</ele>
        <time>2004-03-21T07:38:02Z</time>
      </trkpt>
      <trkpt lat="44.396331310272217" lon="11.394088268280029">
        <ele>105</ele>
        <time>2004-03-21T07:38:06Z</time>
      </trkpt>
      <trkpt lat="44.396095275878906" lon="11.39331579208374">
        <ele>105</ele>
        <time>2004-03-21T07:38:18Z</time>
      </trkpt>
      <trkpt lat="44.395945072174072" lon="11.393229961395264">
        <ele>105</ele>
        <time>2004-03-21T07:38:22Z</time>
      </trkpt>
      <trkpt lat="44.395151138305664" lon="11.392800807952881">
        <ele>106</ele>
        <time>2004-03-21T07:38:41Z</time>
      </trkpt>
      <trkpt lat="44.394571781158447" lon="11.392285823822021">
        <ele>106</ele>
        <time>2004-03-21T07:38:59Z</time>
      </trkpt>
      <trkpt lat="44.393928134813905" lon="11.391685009002686">
        <ele>106</ele>
        <time>2004-03-21T07:39:20Z</time>
      </trkpt>
      <trkpt lat="44.393391609191895" lon="11.391148567199707">
        <ele>108</ele>
        <time>2004-03-21T07:39:39Z</time>
      </trkpt>
      <trkpt lat="44.39274787902832" lon="11.390376091003418">
        <ele>107</ele>
        <time>2004-03-21T07:40:01Z</time>
      </trkpt>
      <trkpt lat="44.392661964520812" lon="11.390247261151671">
        <ele>107</ele>
        <time>2004-03-21T07:40:04Z</time>
      </trkpt>
      <trkpt lat="44.392619132995605" lon="11.389946937561035">
        <ele>107</ele>
        <time>2004-03-21T07:40:10Z</time>
      </trkpt>
      <trkpt lat="44.392619132995605" lon="11.389131462201476">
        <ele>108</ele>
        <time>2004-03-21T07:40:28Z</time>
      </trkpt>
      <trkpt lat="44.392275810241699" lon="11.388852596282959">
        <ele>108</ele>
        <time>2004-03-21T07:40:39Z</time>
      </trkpt>
      <trkpt lat="44.391674995422363" lon="11.389002799987793">
        <ele>109</ele>
        <time>2004-03-21T07:40:55Z</time>
      </trkpt>
      <trkpt lat="44.390881061553955" lon="11.388938426971436">
        <ele>109</ele>
        <time>2004-03-21T07:41:16Z</time>
      </trkpt>
      <trkpt lat="44.390237331390381" lon="11.388702392578125">
        <ele>111</ele>
        <time>2004-03-21T07:41:35Z</time>
      </trkpt>
      <trkpt lat="44.389529228210449" lon="11.388852596282959">
        <ele>113</ele>
        <time>2004-03-21T07:41:57Z</time>
      </trkpt>
      <trkpt lat="44.388928413391113" lon="11.388745307922363">
        <ele>113</ele>
        <time>2004-03-21T07:42:13Z</time>
      </trkpt>
      <trkpt lat="44.388241767883301" lon="11.388595104217529">
        <ele>114</ele>
        <time>2004-03-21T07:42:33Z</time>
      </trkpt>
      <trkpt lat="44.387898361310363" lon="11.388659477233887">
        <ele>114</ele>
        <time>2004-03-21T07:42:42Z</time>
      </trkpt>
      <trkpt lat="44.387726783752441" lon="11.388380527496338">
        <ele>114</ele>
        <time>2004-03-21T07:42:49Z</time>
      </trkpt>
      <trkpt lat="44.387619495391846" lon="11.388037204742432">
        <ele>113</ele>
        <time>2004-03-21T07:42:55Z</time>
      </trkpt>
      <trkpt lat="44.387426376342773" lon="11.387672424316406">
        <ele>113</ele>
        <time>2004-03-21T07:43:02Z</time>
      </trkpt>
      <trkpt lat="44.387233341112733" lon="11.387608135119081">
        <ele>113</ele>
        <time>2004-03-21T07:43:06Z</time>
      </trkpt>
      <trkpt lat="44.387104511260986" lon="11.387565135955811">
        <ele>113</ele>
        <time>2004-03-21T07:43:09Z</time>
      </trkpt>
      <trkpt lat="44.386460781097412" lon="11.387286186218262">
        <ele>115</ele>
        <time>2004-03-21T07:43:29Z</time>
      </trkpt>
      <trkpt lat="44.385988712310791" lon="11.386706829071045">
        <ele>116</ele>
        <time>2004-03-21T07:43:48Z</time>
      </trkpt>
      <trkpt lat="44.385473728179932" lon="11.386878490447998">
        <ele>116</ele>
        <time>2004-03-21T07:44:02Z</time>
      </trkpt>
      <trkpt lat="44.384958660230041" lon="11.386792659759521">
        <ele>117</ele>
        <time>2004-03-21T07:44:16Z</time>
      </trkpt>
      <trkpt lat="44.384658336639404" lon="11.386256217956543">
        <ele>117</ele>
        <time>2004-03-21T07:44:31Z</time>
      </trkpt>
      <trkpt lat="44.384229183197021" lon="11.385204792022705">
        <ele>118</ele>
        <time>2004-03-21T07:44:54Z</time>
      </trkpt>
      <trkpt lat="44.383649826049805" lon="11.384024620056152">
        <ele>120</ele>
        <time>2004-03-21T07:45:21Z</time>
      </trkpt>
      <trkpt lat="44.383563995361328" lon="11.383852958679199">
        <ele>120</ele>
        <time>2004-03-21T07:45:25Z</time>
      </trkpt>
      <trkpt lat="44.383392333984375" lon="11.383466720581055">
        <ele>121</ele>
        <time>2004-03-21T07:45:33Z</time>
      </trkpt>
      <trkpt lat="44.383199214935303" lon="11.383316516876221">
        <ele>122</ele>
        <time>2004-03-21T07:45:38Z</time>
      </trkpt>
      <trkpt lat="44.383091926574707" lon="11.383273601531982">
        <ele>121</ele>
        <time>2004-03-21T07:45:41Z</time>
      </trkpt>
      <trkpt lat="44.382662773132324" lon="11.38308048248291">
        <ele>120</ele>
        <time>2004-03-21T07:45:50Z</time>
      </trkpt>
      <trkpt lat="44.382598400115967" lon="11.383016109466553">
        <ele>120</ele>
        <time>2004-03-21T07:45:52Z</time>
      </trkpt>
      <trkpt lat="44.381911838427186" lon="11.382694160565734">
        <ele>120</ele>
        <time>2004-03-21T07:46:09Z</time>
      </trkpt>
      <trkpt lat="44.381353938952088" lon="11.382801532745361">
        <ele>122</ele>
        <time>2004-03-21T07:46:27Z</time>
      </trkpt>
      <trkpt lat="44.380817413330078" lon="11.382908821105957">
        <ele>124</ele>
        <time>2004-03-21T07:46:45Z</time>
      </trkpt>
      <trkpt lat="44.380796039476991" lon="11.382908821105957">
        <ele>124</ele>
        <time>2004-03-21T07:46:46Z</time>
      </trkpt>
      <trkpt lat="44.38025951385498" lon="11.383209228515625">
        <ele>126</ele>
        <time>2004-03-21T07:47:04Z</time>
      </trkpt>
      <trkpt lat="44.379508495330811" lon="11.383509635925293">
        <ele>128</ele>
        <time>2004-03-21T07:47:27Z</time>
      </trkpt>
      <trkpt lat="44.379057884216309" lon="11.383745670318604">
        <ele>129</ele>
        <time>2004-03-21T07:47:44Z</time>
      </trkpt>
      <trkpt lat="44.3785644415766" lon="11.384067535400391">
        <ele>130</ele>
        <time>2004-03-21T07:48:03Z</time>
      </trkpt>
      <trkpt lat="44.378156661987305" lon="11.384346485137939">
        <ele>134</ele>
        <time>2004-03-21T07:48:20Z</time>
      </trkpt>
      <trkpt lat="44.377727508544922" lon="11.384668434038758">
        <ele>135</ele>
        <time>2004-03-21T07:48:39Z</time>
      </trkpt>
      <trkpt lat="44.377384185791016" lon="11.385011672973633">
        <ele>138</ele>
        <time>2004-03-21T07:48:58Z</time>
      </trkpt>
      <trkpt lat="44.377126693725586" lon="11.385269165039063">
        <ele>141</ele>
        <time>2004-03-21T07:49:11Z</time>
      </trkpt>
      <trkpt lat="44.376826286315918" lon="11.385483741760254">
        <ele>144</ele>
        <time>2004-03-21T07:49:28Z</time>
      </trkpt>
      <trkpt lat="44.376332759857178" lon="11.385397911071777">
        <ele>145</ele>
        <time>2004-03-21T07:49:46Z</time>
      </trkpt>
      <trkpt lat="44.375710487365723" lon="11.385269165039063">
        <ele>147</ele>
        <time>2004-03-21T07:50:07Z</time>
      </trkpt>
      <trkpt lat="44.375131130218506" lon="11.384990215301514">
        <ele>150</ele>
        <time>2004-03-21T07:50:30Z</time>
      </trkpt>
      <trkpt lat="44.374766265973449" lon="11.38484001159668">
        <ele>153</ele>
        <time>2004-03-21T07:50:48Z</time>
      </trkpt>
      <trkpt lat="44.374444484710693" lon="11.384754180908203">
        <ele>156</ele>
        <time>2004-03-21T07:51:04Z</time>
      </trkpt>
      <trkpt lat="44.374079704284668" lon="11.384668434038758">
        <ele>159</ele>
        <time>2004-03-21T07:51:25Z</time>
      </trkpt>
      <trkpt lat="44.373757839202881" lon="11.384668434038758">
        <ele>162</ele>
        <time>2004-03-21T07:51:42Z</time>
      </trkpt>
      <trkpt lat="44.373478889465332" lon="11.384797096252441">
        <ele>165</ele>
        <time>2004-03-21T07:52:00Z</time>
      </trkpt>
      <trkpt lat="44.373049736022949" lon="11.385204792022705">
        <ele>167</ele>
        <time>2004-03-21T07:52:29Z</time>
      </trkpt>
      <trkpt lat="44.372899532318115" lon="11.385505199432373">
        <ele>169</ele>
        <time>2004-03-21T07:52:46Z</time>
      </trkpt>
      <trkpt lat="44.3727707862854" lon="11.385719776153564">
        <ele>173</ele>
        <time>2004-03-21T07:53:01Z</time>
      </trkpt>
      <trkpt lat="44.372534835711122" lon="11.385977268218994">
        <ele>176</ele>
        <time>2004-03-21T07:53:20Z</time>
      </trkpt>
      <trkpt lat="44.37227725982666" lon="11.386234760284424">
        <ele>179</ele>
        <time>2004-03-21T07:53:41Z</time>
      </trkpt>
      <trkpt lat="44.372127139940858" lon="11.386384963989258">
        <ele>183</ele>
        <time>2004-03-21T07:53:54Z</time>
      </trkpt>
      <trkpt lat="44.371762275695801" lon="11.386749660596251">
        <ele>186</ele>
        <time>2004-03-21T07:54:22Z</time>
      </trkpt>
      <trkpt lat="44.371590614318848" lon="11.386985778808594">
        <ele>189</ele>
        <time>2004-03-21T07:54:40Z</time>
      </trkpt>
      <trkpt lat="44.371419036760926" lon="11.387393474578857">
        <ele>192</ele>
        <time>2004-03-21T07:55:04Z</time>
      </trkpt>
      <trkpt lat="44.371268665418029" lon="11.387736797332764">
        <ele>195</ele>
        <time>2004-03-21T07:55:24Z</time>
      </trkpt>
      <trkpt lat="44.371161460876465" lon="11.388015663251281">
        <ele>199</ele>
        <time>2004-03-21T07:55:41Z</time>
      </trkpt>
      <trkpt lat="44.371054172515869" lon="11.388273239135742">
        <ele>201</ele>
        <time>2004-03-21T07:55:57Z</time>
      </trkpt>
      <trkpt lat="44.370925426483154" lon="11.388530731201172">
        <ele>204</ele>
        <time>2004-03-21T07:56:14Z</time>
      </trkpt>
      <trkpt lat="44.370710765942931" lon="11.388959884643555">
        <ele>206</ele>
        <time>2004-03-21T07:56:41Z</time>
      </trkpt>
      <trkpt lat="44.370603561401367" lon="11.389131462201476">
        <ele>210</ele>
        <time>2004-03-21T07:56:53Z</time>
      </trkpt>
      <trkpt lat="44.370496273040771" lon="11.389346122741699">
        <ele>213</ele>
        <time>2004-03-21T07:57:07Z</time>
      </trkpt>
      <trkpt lat="44.370367527008057" lon="11.389603614807129">
        <ele>216</ele>
        <time>2004-03-21T07:57:22Z</time>
      </trkpt>
      <trkpt lat="44.370217323303223" lon="11.38981819152832">
        <ele>219</ele>
        <time>2004-03-21T07:57:40Z</time>
      </trkpt>
      <trkpt lat="44.37004566192627" lon="11.390054225921631">
        <ele>223</ele>
        <time>2004-03-21T07:57:58Z</time>
      </trkpt>
      <trkpt lat="44.369809627532959" lon="11.390419006347656">
        <ele>226</ele>
        <time>2004-03-21T07:58:24Z</time>
      </trkpt>
      <trkpt lat="44.369595134630799" lon="11.390698039904237">
        <ele>229</ele>
        <time>2004-03-21T07:58:45Z</time>
      </trkpt>
      <trkpt lat="44.369401931762695" lon="11.390848159790039">
        <ele>232</ele>
        <time>2004-03-21T07:59:05Z</time>
      </trkpt>
      <trkpt lat="44.369401931762695" lon="11.390848159790039">
        <ele>232</ele>
        <time>2004-03-21T07:59:06Z</time>
      </trkpt>
      <trkpt lat="44.369380474090576" lon="11.391298770904541">
        <ele>236</ele>
        <time>2004-03-21T07:59:25Z</time>
      </trkpt>
      <trkpt lat="44.369444763287902" lon="11.391534805297852">
        <ele>239</ele>
        <time>2004-03-21T07:59:50Z</time>
      </trkpt>
      <trkpt lat="44.369959831237793" lon="11.39082670211792">
        <ele>241</ele>
        <time>2004-03-21T08:00:02Z</time>
      </trkpt>
      <trkpt lat="44.370174407958984" lon="11.390612125396729">
        <ele>245</ele>
        <time>2004-03-21T08:00:24Z</time>
      </trkpt>
      <trkpt lat="44.37028169631958" lon="11.390655040740967">
        <ele>245</ele>
        <time>2004-03-21T08:00:26Z</time>
      </trkpt>
      <trkpt lat="44.370324611663818" lon="11.390848159790039">
        <ele>247</ele>
        <time>2004-03-21T08:00:35Z</time>
      </trkpt>
      <trkpt lat="44.370217323303223" lon="11.39108419418335">
        <ele>250</ele>
        <time>2004-03-21T08:00:48Z</time>
      </trkpt>
      <trkpt lat="44.370131492614746" lon="11.391298770904541">
        <ele>253</ele>
        <time>2004-03-21T08:01:02Z</time>
      </trkpt>
      <trkpt lat="44.370110034942627" lon="11.391341686248779">
        <ele>253</ele>
        <time>2004-03-21T08:01:04Z</time>
      </trkpt>
      <trkpt lat="44.369938373565674" lon="11.391534805297852">
        <ele>257</ele>
        <time>2004-03-21T08:01:21Z</time>
      </trkpt>
      <trkpt lat="44.369766712188721" lon="11.391770839691162">
        <ele>260</ele>
        <time>2004-03-21T08:01:39Z</time>
      </trkpt>
      <trkpt lat="44.369766712188721" lon="11.391792297363281">
        <ele>260</ele>
        <time>2004-03-21T08:01:40Z</time>
      </trkpt>
      <trkpt lat="44.369595134630799" lon="11.392028331756592">
        <ele>264</ele>
        <time>2004-03-21T08:01:59Z</time>
      </trkpt>
      <trkpt lat="44.369380474090576" lon="11.39232873916626">
        <ele>266</ele>
        <time>2004-03-21T08:02:24Z</time>
      </trkpt>
      <trkpt lat="44.369380474090576" lon="11.392350196838379">
        <ele>267</ele>
        <time>2004-03-21T08:02:26Z</time>
      </trkpt>
      <trkpt lat="44.36927318572998" lon="11.39256477355957">
        <ele>270</ele>
        <time>2004-03-21T08:02:40Z</time>
      </trkpt>
      <trkpt lat="44.369015693664551" lon="11.392586231231689">
        <ele>273</ele>
        <time>2004-03-21T08:02:58Z</time>
      </trkpt>
      <trkpt lat="44.368844032287598" lon="11.392607688903809">
        <ele>276</ele>
        <time>2004-03-21T08:03:10Z</time>
      </trkpt>
      <trkpt lat="44.36877965927124" lon="11.392650604248047">
        <ele>276</ele>
        <time>2004-03-21T08:03:16Z</time>
      </trkpt>
      <trkpt lat="44.36873666010797" lon="11.392714977264404">
        <ele>277</ele>
        <time>2004-03-21T08:03:21Z</time>
      </trkpt>
      <trkpt lat="44.368908405303955" lon="11.392865180969238">
        <ele>281</ele>
        <time>2004-03-21T08:03:39Z</time>
      </trkpt>
      <trkpt lat="44.369251728057861" lon="11.392929637804627">
        <ele>284</ele>
        <time>2004-03-21T08:03:57Z</time>
      </trkpt>
      <trkpt lat="44.36953067779541" lon="11.392865180969238">
        <ele>287</ele>
        <time>2004-03-21T08:04:11Z</time>
      </trkpt>
      <trkpt lat="44.369573593139648" lon="11.392865180969238">
        <ele>288</ele>
        <time>2004-03-21T08:04:14Z</time>
      </trkpt>
      <trkpt lat="44.369552135467529" lon="11.393015384674072">
        <ele>288</ele>
        <time>2004-03-21T08:04:20Z</time>
      </trkpt>
      <trkpt lat="44.369294559583068" lon="11.393294334411621">
        <ele>291</ele>
        <time>2004-03-21T08:04:37Z</time>
      </trkpt>
      <trkpt lat="44.368886863812804" lon="11.393508911132813">
        <ele>295</ele>
        <time>2004-03-21T08:05:02Z</time>
      </trkpt>
      <trkpt lat="44.368586540222168" lon="11.393744861707091">
        <ele>297</ele>
        <time>2004-03-21T08:05:23Z</time>
      </trkpt>
      <trkpt lat="44.368178760632873" lon="11.393637740984559">
        <ele>301</ele>
        <time>2004-03-21T08:05:45Z</time>
      </trkpt>
      <trkpt lat="44.367899894714355" lon="11.393423080444336">
        <ele>304</ele>
        <time>2004-03-21T08:06:02Z</time>
      </trkpt>
      <trkpt lat="44.367599487304688" lon="11.393208503723145">
        <ele>307</ele>
        <time>2004-03-21T08:06:20Z</time>
      </trkpt>
      <trkpt lat="44.367256164550781" lon="11.392886638641357">
        <ele>310</ele>
        <time>2004-03-21T08:06:40Z</time>
      </trkpt>
      <trkpt lat="44.367127418518066" lon="11.392757892608643">
        <ele>315</ele>
        <time>2004-03-21T08:26:08Z</time>
      </trkpt>
      <trkpt lat="44.366912841796875" lon="11.39232873916626">
        <ele>314</ele>
        <time>2004-03-21T08:26:20Z</time>
      </trkpt>
      <trkpt lat="44.366612434387207" lon="11.391878128051758">
        <ele>312</ele>
        <time>2004-03-21T08:26:31Z</time>
      </trkpt>
      <trkpt lat="44.366376399993896" lon="11.391770839691162">
        <ele>314</ele>
        <time>2004-03-21T08:26:43Z</time>
      </trkpt>
      <trkpt lat="44.366354858502746" lon="11.391792297363281">
        <ele>314</ele>
        <time>2004-03-21T08:26:45Z</time>
      </trkpt>
      <trkpt lat="44.366118907928467" lon="11.391685009002686">
        <ele>315</ele>
        <time>2004-03-21T08:26:52Z</time>
      </trkpt>
      <trkpt lat="44.365603923797607" lon="11.391534805297852">
        <ele>317</ele>
        <time>2004-03-21T08:27:05Z</time>
      </trkpt>
      <trkpt lat="44.36504602432251" lon="11.391448974609375">
        <ele>317</ele>
        <time>2004-03-21T08:27:21Z</time>
      </trkpt>
      <trkpt lat="44.364917278289795" lon="11.391363060101867">
        <ele>317</ele>
        <time>2004-03-21T08:27:25Z</time>
      </trkpt>
      <trkpt lat="44.364809989929199" lon="11.390698039904237">
        <ele>320</ele>
        <time>2004-03-21T08:27:40Z</time>
      </trkpt>
      <trkpt lat="44.364767074584961" lon="11.390419006347656">
        <ele>322</ele>
        <time>2004-03-21T08:27:48Z</time>
      </trkpt>
      <trkpt lat="44.364852905273438" lon="11.390376091003418">
        <ele>323</ele>
        <time>2004-03-21T08:27:50Z</time>
      </trkpt>
      <trkpt lat="44.364852905273438" lon="11.39007568359375">
        <ele>326</ele>
        <time>2004-03-21T08:28:00Z</time>
      </trkpt>
      <trkpt lat="44.364917278289795" lon="11.389560699462891">
        <ele>330</ele>
        <time>2004-03-21T08:28:13Z</time>
      </trkpt>
      <trkpt lat="44.364960193634033" lon="11.389410495758057">
        <ele>331</ele>
        <time>2004-03-21T08:28:17Z</time>
      </trkpt>
      <trkpt lat="44.36504602432251" lon="11.38908863067627">
        <ele>332</ele>
        <time>2004-03-21T08:28:27Z</time>
      </trkpt>
      <trkpt lat="44.36504602432251" lon="11.388444900512695">
        <ele>335</ele>
        <time>2004-03-21T08:28:47Z</time>
      </trkpt>
      <trkpt lat="44.364917278289795" lon="11.388294696807861">
        <ele>337</ele>
        <time>2004-03-21T08:28:53Z</time>
      </trkpt>
      <trkpt lat="44.364445209503174" lon="11.38782262802124">
        <ele>338</ele>
        <time>2004-03-21T08:29:12Z</time>
      </trkpt>
      <trkpt lat="44.363951683044434" lon="11.387372016906738">
        <ele>338</ele>
        <time>2004-03-21T08:29:29Z</time>
      </trkpt>
      <trkpt lat="44.363436698913574" lon="11.387243270874023">
        <ele>341</ele>
        <time>2004-03-21T08:29:44Z</time>
      </trkpt>
      <trkpt lat="44.363093376159668" lon="11.387393474578857">
        <ele>344</ele>
        <time>2004-03-21T08:29:54Z</time>
      </trkpt>
      <trkpt lat="44.36305046081543" lon="11.387414932250977">
        <ele>344</ele>
        <time>2004-03-21T08:29:55Z</time>
      </trkpt>
      <trkpt lat="44.36253547668457" lon="11.387372016906738">
        <ele>345</ele>
        <time>2004-03-21T08:30:13Z</time>
      </trkpt>
      <trkpt lat="44.362449562177062" lon="11.387028694152832">
        <ele>345</ele>
        <time>2004-03-21T08:30:20Z</time>
      </trkpt>
      <trkpt lat="44.362277984619141" lon="11.38683557510376">
        <ele>342</ele>
        <time>2004-03-21T08:30:23Z</time>
      </trkpt>
      <trkpt lat="44.362127780914307" lon="11.386706829071045">
        <ele>341</ele>
        <time>2004-03-21T08:30:25Z</time>
      </trkpt>
      <trkpt lat="44.361956119537354" lon="11.38657808303833">
        <ele>339</ele>
        <time>2004-03-21T08:30:27Z</time>
      </trkpt>
      <trkpt lat="44.3617844581604" lon="11.386427879333496">
        <ele>338</ele>
        <time>2004-03-21T08:30:29Z</time>
      </trkpt>
      <trkpt lat="44.361612796783447" lon="11.386277675628662">
        <ele>334</ele>
        <time>2004-03-21T08:30:31Z</time>
      </trkpt>
      <trkpt lat="44.361226558685303" lon="11.385955810546875">
        <ele>330</ele>
        <time>2004-03-21T08:30:35Z</time>
      </trkpt>
      <trkpt lat="44.361119270324707" lon="11.385869979858398">
        <ele>331</ele>
        <time>2004-03-21T08:30:36Z</time>
      </trkpt>
      <trkpt lat="44.360754489898682" lon="11.385505199432373">
        <ele>328</ele>
        <time>2004-03-21T08:30:40Z</time>
      </trkpt>
      <trkpt lat="44.360690116882324" lon="11.385397911071777">
        <ele>326</ele>
        <time>2004-03-21T08:30:41Z</time>
      </trkpt>
      <trkpt lat="44.36053991317749" lon="11.385161876678467">
        <ele>327</ele>
        <time>2004-03-21T08:30:43Z</time>
      </trkpt>
      <trkpt lat="44.360368335619569" lon="11.384646892547607">
        <ele>323</ele>
        <time>2004-03-21T08:30:47Z</time>
      </trkpt>
      <trkpt lat="44.360217964276671" lon="11.383616924285889">
        <ele>319</ele>
        <time>2004-03-21T08:30:54Z</time>
      </trkpt>
      <trkpt lat="44.360196590423584" lon="11.383380889892578">
        <ele>319</ele>
        <time>2004-03-21T08:30:56Z</time>
      </trkpt>
      <trkpt lat="44.359896183013916" lon="11.383209228515625">
        <ele>318</ele>
        <time>2004-03-21T08:31:01Z</time>
      </trkpt>
      <trkpt lat="44.359745979309082" lon="11.383101940155029">
        <ele>317</ele>
        <time>2004-03-21T08:31:03Z</time>
      </trkpt>
      <trkpt lat="44.35955286026001" lon="11.382973194122314">
        <ele>314</ele>
        <time>2004-03-21T08:31:05Z</time>
      </trkpt>
      <trkpt lat="44.359338283538818" lon="11.382844364270568">
        <ele>314</ele>
        <time>2004-03-21T08:31:07Z</time>
      </trkpt>
      <trkpt lat="44.359166622161865" lon="11.382629871368408">
        <ele>312</ele>
        <time>2004-03-21T08:31:09Z</time>
      </trkpt>
      <trkpt lat="44.358973503112793" lon="11.382136261090636">
        <ele>312</ele>
        <time>2004-03-21T08:31:13Z</time>
      </trkpt>
      <trkpt lat="44.358866214752197" lon="11.381900310516357">
        <ele>313</ele>
        <time>2004-03-21T08:31:15Z</time>
      </trkpt>
      <trkpt lat="44.358587265014648" lon="11.381556987762451">
        <ele>315</ele>
        <time>2004-03-21T08:31:19Z</time>
      </trkpt>
      <trkpt lat="44.358372688293457" lon="11.381449699401855">
        <ele>316</ele>
        <time>2004-03-21T08:31:22Z</time>
      </trkpt>
      <trkpt lat="44.357728958129883" lon="11.381149291992188">
        <ele>319</ele>
        <time>2004-03-21T08:31:37Z</time>
      </trkpt>
      <trkpt lat="44.357235431671143" lon="11.3808274269104">
        <ele>323</ele>
        <time>2004-03-21T08:31:49Z</time>
      </trkpt>
      <trkpt lat="44.357192516326904" lon="11.380720138549805">
        <ele>323</ele>
        <time>2004-03-21T08:31:52Z</time>
      </trkpt>
      <trkpt lat="44.356999397277832" lon="11.380119323730469">
        <ele>321</ele>
        <time>2004-03-21T08:32:02Z</time>
      </trkpt>
      <trkpt lat="44.356977939605713" lon="11.379754459485412">
        <ele>320</ele>
        <time>2004-03-21T08:32:07Z</time>
      </trkpt>
      <trkpt lat="44.357128059491515" lon="11.379218101501465">
        <ele>319</ele>
        <time>2004-03-21T08:32:14Z</time>
      </trkpt>
      <trkpt lat="44.357471466064453" lon="11.378445625305176">
        <ele>320</ele>
        <time>2004-03-21T08:32:26Z</time>
      </trkpt>
      <trkpt lat="44.357578838244081" lon="11.377909183502197">
        <ele>318</ele>
        <time>2004-03-21T08:32:31Z</time>
      </trkpt>
      <trkpt lat="44.357514381408691" lon="11.3773512840271">
        <ele>313</ele>
        <time>2004-03-21T08:32:35Z</time>
      </trkpt>
      <trkpt lat="44.357492923736572" lon="11.377222537994385">
        <ele>314</ele>
        <time>2004-03-21T08:32:36Z</time>
      </trkpt>
      <trkpt lat="44.357106685638428" lon="11.37608528137207">
        <ele>315</ele>
        <time>2004-03-21T08:32:47Z</time>
      </trkpt>
      <trkpt lat="44.357063770294189" lon="11.375913619995117">
        <ele>317</ele>
        <time>2004-03-21T08:32:49Z</time>
      </trkpt>
      <trkpt lat="44.356698989868164" lon="11.375505924224854">
        <ele>317</ele>
        <time>2004-03-21T08:33:01Z</time>
      </trkpt>
      <trkpt lat="44.356441497802734" lon="11.37535572052002">
        <ele>320</ele>
        <time>2004-03-21T08:33:12Z</time>
      </trkpt>
      <trkpt lat="44.356226921081543" lon="11.375012397766113">
        <ele>323</ele>
        <time>2004-03-21T08:33:27Z</time>
      </trkpt>
      <trkpt lat="44.356033802032471" lon="11.37460470199585">
        <ele>326</ele>
        <time>2004-03-21T08:33:43Z</time>
      </trkpt>
      <trkpt lat="44.355905139818788" lon="11.374433040618896">
        <ele>327</ele>
        <time>2004-03-21T08:33:51Z</time>
      </trkpt>
      <trkpt lat="44.355604564771056" lon="11.37408971786499">
        <ele>330</ele>
        <time>2004-03-21T08:34:09Z</time>
      </trkpt>
      <trkpt lat="44.355454361066222" lon="11.373918140307069">
        <ele>333</ele>
        <time>2004-03-21T08:34:18Z</time>
      </trkpt>
      <trkpt lat="44.355068206787109" lon="11.373488903045654">
        <ele>335</ele>
        <time>2004-03-21T08:34:40Z</time>
      </trkpt>
      <trkpt lat="44.354746341705322" lon="11.373016834259033">
        <ele>339</ele>
        <time>2004-03-21T08:34:59Z</time>
      </trkpt>
      <trkpt lat="44.354531764984131" lon="11.37265213765204">
        <ele>341</ele>
        <time>2004-03-21T08:35:13Z</time>
      </trkpt>
      <trkpt lat="44.354467391967773" lon="11.372480392456055">
        <ele>343</ele>
        <time>2004-03-21T08:35:21Z</time>
      </trkpt>
      <trkpt lat="44.354424476623535" lon="11.372373104095459">
        <ele>342</ele>
        <time>2004-03-21T08:35:30Z</time>
      </trkpt>
      <trkpt lat="44.354424476623535" lon="11.372373104095459">
        <ele>342</ele>
        <time>2004-03-21T08:35:34Z</time>
      </trkpt>
      <trkpt lat="44.354424476623535" lon="11.372373104095459">
        <ele>341</ele>
        <time>2004-03-21T08:35:43Z</time>
      </trkpt>
      <trkpt lat="44.354317188262939" lon="11.372115612030029">
        <ele>341</ele>
        <time>2004-03-21T08:35:48Z</time>
      </trkpt>
      <trkpt lat="44.354016780853271" lon="11.371665000915527">
        <ele>336</ele>
        <time>2004-03-21T08:35:54Z</time>
      </trkpt>
      <trkpt lat="44.353931033983827" lon="11.371643459424376">
        <ele>335</ele>
        <time>2004-03-21T08:35:55Z</time>
      </trkpt>
      <trkpt lat="44.35354471206665" lon="11.371471881866455">
        <ele>330</ele>
        <time>2004-03-21T08:35:59Z</time>
      </trkpt>
      <trkpt lat="44.353458881378174" lon="11.371428966522217">
        <ele>329</ele>
        <time>2004-03-21T08:36:00Z</time>
      </trkpt>
      <trkpt lat="44.353179931640625" lon="11.371128559112549">
        <ele>321</ele>
        <time>2004-03-21T08:36:03Z</time>
      </trkpt>
      <trkpt lat="44.352986812591553" lon="11.370892524719238">
        <ele>318</ele>
        <time>2004-03-21T08:36:05Z</time>
      </trkpt>
      <trkpt lat="44.352772235870361" lon="11.370635032653809">
        <ele>314</ele>
        <time>2004-03-21T08:36:07Z</time>
      </trkpt>
      <trkpt lat="44.35255765914917" lon="11.370420539751649">
        <ele>311</ele>
        <time>2004-03-21T08:36:09Z</time>
      </trkpt>
      <trkpt lat="44.352385997772217" lon="11.370162963867188">
        <ele>310</ele>
        <time>2004-03-21T08:36:11Z</time>
      </trkpt>
      <trkpt lat="44.352321624755859" lon="11.370034217834473">
        <ele>310</ele>
        <time>2004-03-21T08:36:12Z</time>
      </trkpt>
      <trkpt lat="44.351999759674072" lon="11.3698410987854">
        <ele>314</ele>
        <time>2004-03-21T08:36:16Z</time>
      </trkpt>
      <trkpt lat="44.351956760510802" lon="11.369712436571717">
        <ele>314</ele>
        <time>2004-03-21T08:36:17Z</time>
      </trkpt>
      <trkpt lat="44.351913928985596" lon="11.36956206522882">
        <ele>315</ele>
        <time>2004-03-21T08:36:19Z</time>
      </trkpt>
      <trkpt lat="44.351763725280762" lon="11.369304740801454">
        <ele>313</ele>
        <time>2004-03-21T08:36:23Z</time>
      </trkpt>
      <trkpt lat="44.351592063903809" lon="11.369197368621826">
        <ele>314</ele>
        <time>2004-03-21T08:36:26Z</time>
      </trkpt>
      <trkpt lat="44.351398861035705" lon="11.369068622589111">
        <ele>315</ele>
        <time>2004-03-21T08:36:30Z</time>
      </trkpt>
      <trkpt lat="44.351162910461426" lon="11.368832588195801">
        <ele>317</ele>
        <time>2004-03-21T08:36:36Z</time>
      </trkpt>
      <trkpt lat="44.350991165265441" lon="11.368553638458252">
        <ele>318</ele>
        <time>2004-03-21T08:36:42Z</time>
      </trkpt>
      <trkpt lat="44.350969791412354" lon="11.367866992950439">
        <ele>315</ele>
        <time>2004-03-21T08:36:50Z</time>
      </trkpt>
      <trkpt lat="44.350991165265441" lon="11.367695331573486">
        <ele>315</ele>
        <time>2004-03-21T08:36:52Z</time>
      </trkpt>
      <trkpt lat="44.350948333740234" lon="11.367416381835938">
        <ele>311</ele>
        <time>2004-03-21T08:36:55Z</time>
      </trkpt>
      <trkpt lat="44.350905418395996" lon="11.367201805114746">
        <ele>309</ele>
        <time>2004-03-21T08:36:57Z</time>
      </trkpt>
      <trkpt lat="44.350776672363281" lon="11.366837024688721">
        <ele>305</ele>
        <time>2004-03-21T08:37:00Z</time>
      </trkpt>
      <trkpt lat="44.350733840838075" lon="11.366708278656006">
        <ele>304</ele>
        <time>2004-03-21T08:37:01Z</time>
      </trkpt>
      <trkpt lat="44.350583637133241" lon="11.366043090820313">
        <ele>299</ele>
        <time>2004-03-21T08:37:06Z</time>
      </trkpt>
      <trkpt lat="44.35056209564209" lon="11.365399360656738">
        <ele>296</ele>
        <time>2004-03-21T08:37:11Z</time>
      </trkpt>
      <trkpt lat="44.350476264953613" lon="11.364262104034424">
        <ele>295</ele>
        <time>2004-03-21T08:37:24Z</time>
      </trkpt>
      <trkpt lat="44.350433265790343" lon="11.363833034411073">
        <ele>295</ele>
        <time>2004-03-21T08:37:38Z</time>
      </trkpt>
      <trkpt lat="44.350411891937256" lon="11.363468170166016">
        <ele>295</ele>
        <time>2004-03-21T08:37:47Z</time>
      </trkpt>
      <trkpt lat="44.350411891937256" lon="11.363446712493896">
        <ele>294</ele>
        <time>2004-03-21T08:38:02Z</time>
      </trkpt>
      <trkpt lat="44.350411891937256" lon="11.363446712493896">
        <ele>293</ele>
        <time>2004-03-21T08:38:18Z</time>
      </trkpt>
      <trkpt lat="44.350411891937256" lon="11.363446712493896">
        <ele>293</ele>
        <time>2004-03-21T08:38:29Z</time>
      </trkpt>
      <trkpt lat="44.350411891937256" lon="11.363446712493896">
        <ele>293</ele>
        <time>2004-03-21T08:38:39Z</time>
      </trkpt>
      <trkpt lat="44.350411891937256" lon="11.363446712493896">
        <ele>294</ele>
        <time>2004-03-21T08:41:23Z</time>
      </trkpt>
      <trkpt lat="44.350411891937256" lon="11.363446712493896">
        <ele>294</ele>
        <time>2004-03-21T08:41:54Z</time>
      </trkpt>
      <trkpt lat="44.350390434265137" lon="11.363296508789063">
        <ele>294</ele>
        <time>2004-03-21T08:42:02Z</time>
      </trkpt>
      <trkpt lat="44.350669384002686" lon="11.362631320953369">
        <ele>297</ele>
        <time>2004-03-21T08:42:19Z</time>
      </trkpt>
      <trkpt lat="44.350883960723877" lon="11.362094879150391">
        <ele>301</ele>
        <time>2004-03-21T08:42:36Z</time>
      </trkpt>
      <trkpt lat="44.350969791412354" lon="11.361901760101318">
        <ele>300</ele>
        <time>2004-03-21T08:42:42Z</time>
      </trkpt>
      <trkpt lat="44.351162910461426" lon="11.361322402954102">
        <ele>301</ele>
        <time>2004-03-21T08:42:59Z</time>
      </trkpt>
      <trkpt lat="44.351119995117188" lon="11.360549926757813">
        <ele>300</ele>
        <time>2004-03-21T08:43:16Z</time>
      </trkpt>
      <trkpt lat="44.351034164428711" lon="11.360077941790223">
        <ele>299</ele>
        <time>2004-03-21T08:43:25Z</time>
      </trkpt>
      <trkpt lat="44.351034164428711" lon="11.359691619873047">
        <ele>298</ele>
        <time>2004-03-21T08:43:31Z</time>
      </trkpt>
      <trkpt lat="44.350948333740234" lon="11.359391212463379">
        <ele>297</ele>
        <time>2004-03-21T08:43:35Z</time>
      </trkpt>
      <trkpt lat="44.350626468658447" lon="11.358962059020996">
        <ele>292</ele>
        <time>2004-03-21T08:43:41Z</time>
      </trkpt>
      <trkpt lat="44.350583637133241" lon="11.358897686004639">
        <ele>292</ele>
        <time>2004-03-21T08:43:42Z</time>
      </trkpt>
      <trkpt lat="44.350261688232422" lon="11.358425617218018">
        <ele>291</ele>
        <time>2004-03-21T08:43:52Z</time>
      </trkpt>
      <trkpt lat="44.350004196166992" lon="11.358189582824707">
        <ele>294</ele>
        <time>2004-03-21T08:44:02Z</time>
      </trkpt>
      <trkpt lat="44.349918365478516" lon="11.358082294464111">
        <ele>296</ele>
        <time>2004-03-21T08:44:08Z</time>
      </trkpt>
      <trkpt lat="44.349639415740967" lon="11.357781887054443">
        <ele>298</ele>
        <time>2004-03-21T08:44:24Z</time>
      </trkpt>
      <trkpt lat="44.349489212036133" lon="11.357653141021729">
        <ele>298</ele>
        <time>2004-03-21T08:44:30Z</time>
      </trkpt>
      <trkpt lat="44.349274635314941" lon="11.357545936480165">
        <ele>296</ele>
        <time>2004-03-21T08:44:35Z</time>
      </trkpt>
      <trkpt lat="44.349188804626465" lon="11.357524394989014">
        <ele>297</ele>
        <time>2004-03-21T08:44:37Z</time>
      </trkpt>
      <trkpt lat="44.348545074462891" lon="11.357481479644775">
        <ele>299</ele>
        <time>2004-03-21T08:44:53Z</time>
      </trkpt>
      <trkpt lat="44.347944259643555" lon="11.357266902923584">
        <ele>301</ele>
        <time>2004-03-21T08:45:12Z</time>
      </trkpt>
      <trkpt lat="44.347386360168457" lon="11.356988037005067">
        <ele>305</ele>
        <time>2004-03-21T08:45:34Z</time>
      </trkpt>
      <trkpt lat="44.346914291381836" lon="11.356923580169678">
        <ele>308</ele>
        <time>2004-03-21T08:45:53Z</time>
      </trkpt>
      <trkpt lat="44.346463680267334" lon="11.356945037841797">
        <ele>309</ele>
        <time>2004-03-21T08:46:11Z</time>
      </trkpt>
      <trkpt lat="44.346120441332459" lon="11.357073783874512">
        <ele>313</ele>
        <time>2004-03-21T08:46:25Z</time>
      </trkpt>
      <trkpt lat="44.345755577087402" lon="11.35711669921875">
        <ele>316</ele>
        <time>2004-03-21T08:46:40Z</time>
      </trkpt>
      <trkpt lat="44.345605373382568" lon="11.357030868530273">
        <ele>320</ele>
        <time>2004-03-21T08:46:48Z</time>
      </trkpt>
      <trkpt lat="44.345176219940186" lon="11.356794834136963">
        <ele>323</ele>
        <time>2004-03-21T08:47:08Z</time>
      </trkpt>
      <trkpt lat="44.344875812530518" lon="11.356451511383057">
        <ele>324</ele>
        <time>2004-03-21T08:47:25Z</time>
      </trkpt>
      <trkpt lat="44.344682693481445" lon="11.356344223022461">
        <ele>324</ele>
        <time>2004-03-21T08:47:33Z</time>
      </trkpt>
      <trkpt lat="44.344081878662109" lon="11.356387138366699">
        <ele>326</ele>
        <time>2004-03-21T08:47:51Z</time>
      </trkpt>
      <trkpt lat="44.343438064679503" lon="11.35636568069458">
        <ele>328</ele>
        <time>2004-03-21T08:48:13Z</time>
      </trkpt>
      <trkpt lat="44.342944622039795" lon="11.356215476989746">
        <ele>330</ele>
        <time>2004-03-21T08:48:32Z</time>
      </trkpt>
      <trkpt lat="44.342858791351318" lon="11.355979358777404">
        <ele>333</ele>
        <time>2004-03-21T08:48:40Z</time>
      </trkpt>
      <trkpt lat="44.342837333679199" lon="11.355957984924316">
        <ele>333</ele>
        <time>2004-03-21T08:48:41Z</time>
      </trkpt>
      <trkpt lat="44.342494010925293" lon="11.355099678039551">
        <ele>335</ele>
        <time>2004-03-21T08:49:11Z</time>
      </trkpt>
      <trkpt lat="44.342043399810791" lon="11.354649066925049">
        <ele>335</ele>
        <time>2004-03-21T08:49:26Z</time>
      </trkpt>
      <trkpt lat="44.34157133102417" lon="11.354026794433594">
        <ele>335</ele>
        <time>2004-03-21T08:49:41Z</time>
      </trkpt>
      <trkpt lat="44.34107780456543" lon="11.353769302368164">
        <ele>337</ele>
        <time>2004-03-21T08:49:55Z</time>
      </trkpt>
      <trkpt lat="44.340691566467285" lon="11.354005336761475">
        <ele>340</ele>
        <time>2004-03-21T08:50:09Z</time>
      </trkpt>
      <trkpt lat="44.340241039171815" lon="11.354305660352111">
        <ele>340</ele>
        <time>2004-03-21T08:50:26Z</time>
      </trkpt>
      <trkpt lat="44.339661598205566" lon="11.354198539629579">
        <ele>339</ele>
        <time>2004-03-21T08:50:41Z</time>
      </trkpt>
      <trkpt lat="44.339554309844971" lon="11.354155540466309">
        <ele>339</ele>
        <time>2004-03-21T08:50:43Z</time>
      </trkpt>
      <trkpt lat="44.339296817779541" lon="11.354134082794189">
        <ele>339</ele>
        <time>2004-03-21T08:50:47Z</time>
      </trkpt>
      <trkpt lat="44.33908224105835" lon="11.354284286499023">
        <ele>337</ele>
        <time>2004-03-21T08:50:51Z</time>
      </trkpt>
      <trkpt lat="44.338674461469054" lon="11.35462760925293">
        <ele>337</ele>
        <time>2004-03-21T08:50:59Z</time>
      </trkpt>
      <trkpt lat="44.338438510894775" lon="11.354649066925049">
        <ele>338</ele>
        <time>2004-03-21T08:51:04Z</time>
      </trkpt>
      <trkpt lat="44.338288307189941" lon="11.354606235399842">
        <ele>337</ele>
        <time>2004-03-21T08:51:07Z</time>
      </trkpt>
      <trkpt lat="44.338159561157227" lon="11.354563236236572">
        <ele>335</ele>
        <time>2004-03-21T08:51:09Z</time>
      </trkpt>
      <trkpt lat="44.338030815124512" lon="11.354520320892334">
        <ele>335</ele>
        <time>2004-03-21T08:51:11Z</time>
      </trkpt>
      <trkpt lat="44.337730407714844" lon="11.354520320892334">
        <ele>334</ele>
        <time>2004-03-21T08:51:15Z</time>
      </trkpt>
      <trkpt lat="44.33708667755127" lon="11.354606235399842">
        <ele>330</ele>
        <time>2004-03-21T08:51:23Z</time>
      </trkpt>
      <trkpt lat="44.336721897125244" lon="11.354477405548096">
        <ele>326</ele>
        <time>2004-03-21T08:51:27Z</time>
      </trkpt>
      <trkpt lat="44.336593234911561" lon="11.354348659515381">
        <ele>326</ele>
        <time>2004-03-21T08:51:29Z</time>
      </trkpt>
      <trkpt lat="44.336271286010742" lon="11.354198539629579">
        <ele>324</ele>
        <time>2004-03-21T08:51:33Z</time>
      </trkpt>
      <trkpt lat="44.335370063781738" lon="11.354413032531738">
        <ele>322</ele>
        <time>2004-03-21T08:51:45Z</time>
      </trkpt>
      <trkpt lat="44.334769165143371" lon="11.355292797088623">
        <ele>322</ele>
        <time>2004-03-21T08:51:59Z</time>
      </trkpt>
      <trkpt lat="44.334618961438537" lon="11.3553786277771">
        <ele>323</ele>
        <time>2004-03-21T08:52:02Z</time>
      </trkpt>
      <trkpt lat="44.334018230438232" lon="11.355700492858887">
        <ele>326</ele>
        <time>2004-03-21T08:52:19Z</time>
      </trkpt>
      <trkpt lat="44.333610534667969" lon="11.356022441759706">
        <ele>329</ele>
        <time>2004-03-21T08:52:33Z</time>
      </trkpt>
      <trkpt lat="44.333374500274658" lon="11.35610818862915">
        <ele>334</ele>
        <time>2004-03-21T08:52:44Z</time>
      </trkpt>
      <trkpt lat="44.333352958783507" lon="11.35610818862915">
        <ele>334</ele>
        <time>2004-03-21T08:52:45Z</time>
      </trkpt>
      <trkpt lat="44.333117008209229" lon="11.356172561645508">
        <ele>336</ele>
        <time>2004-03-21T08:52:55Z</time>
      </trkpt>
      <trkpt lat="44.332602024078369" lon="11.356709003448486">
        <ele>339</ele>
        <time>2004-03-21T08:53:21Z</time>
      </trkpt>
      <trkpt lat="44.332430362701416" lon="11.357502937316895">
        <ele>342</ele>
        <time>2004-03-21T08:53:42Z</time>
      </trkpt>
      <trkpt lat="44.332194328308105" lon="11.358447074890137">
        <ele>343</ele>
        <time>2004-03-21T08:54:00Z</time>
      </trkpt>
      <trkpt lat="44.332194328308105" lon="11.35906926356256">
        <ele>344</ele>
        <time>2004-03-21T08:54:14Z</time>
      </trkpt>
      <trkpt lat="44.332365989685059" lon="11.359627163037658">
        <ele>347</ele>
        <time>2004-03-21T08:54:32Z</time>
      </trkpt>
      <trkpt lat="44.332473278045654" lon="11.359949111938477">
        <ele>351</ele>
        <time>2004-03-21T08:54:47Z</time>
      </trkpt>
      <trkpt lat="44.332494735717773" lon="11.359992027282715">
        <ele>351</ele>
        <time>2004-03-21T08:54:49Z</time>
      </trkpt>
      <trkpt lat="44.332430362701416" lon="11.360034858807921">
        <ele>354</ele>
        <time>2004-03-21T08:54:56Z</time>
      </trkpt>
      <trkpt lat="44.332151412963867" lon="11.359906196594238">
        <ele>357</ele>
        <time>2004-03-21T08:55:12Z</time>
      </trkpt>
      <trkpt lat="44.331936836242676" lon="11.359691619873047">
        <ele>360</ele>
        <time>2004-03-21T08:55:25Z</time>
      </trkpt>
      <trkpt lat="44.331700801849365" lon="11.359455585479736">
        <ele>364</ele>
        <time>2004-03-21T08:55:40Z</time>
      </trkpt>
      <trkpt lat="44.331679260358214" lon="11.359369838610291">
        <ele>365</ele>
        <time>2004-03-21T08:55:45Z</time>
      </trkpt>
      <trkpt lat="44.331679260358214" lon="11.359004974365234">
        <ele>368</ele>
        <time>2004-03-21T08:56:03Z</time>
      </trkpt>
      <trkpt lat="44.331657886505127" lon="11.358940601348877">
        <ele>368</ele>
        <time>2004-03-21T08:56:06Z</time>
      </trkpt>
      <trkpt lat="44.331550598144531" lon="11.358726024627686">
        <ele>372</ele>
        <time>2004-03-21T08:56:19Z</time>
      </trkpt>
      <trkpt lat="44.331529140472412" lon="11.358704566955566">
        <ele>372</ele>
        <time>2004-03-21T08:56:20Z</time>
      </trkpt>
      <trkpt lat="44.331421935930848" lon="11.358339786529541">
        <ele>375</ele>
        <time>2004-03-21T08:56:40Z</time>
      </trkpt>
      <trkpt lat="44.331421935930848" lon="11.35786771774292">
        <ele>377</ele>
        <time>2004-03-21T08:56:59Z</time>
      </trkpt>
      <trkpt lat="44.331421935930848" lon="11.357696140184999">
        <ele>379</ele>
        <time>2004-03-21T08:57:06Z</time>
      </trkpt>
      <trkpt lat="44.33133602142334" lon="11.357266902923584">
        <ele>382</ele>
        <time>2004-03-21T08:57:24Z</time>
      </trkpt>
      <trkpt lat="44.331271564587951" lon="11.356988037005067">
        <ele>385</ele>
        <time>2004-03-21T08:57:36Z</time>
      </trkpt>
      <trkpt lat="44.331228733062744" lon="11.356880664825439">
        <ele>388</ele>
        <time>2004-03-21T08:57:41Z</time>
      </trkpt>
      <trkpt lat="44.331099987030029" lon="11.356558799743652">
        <ele>391</ele>
        <time>2004-03-21T08:57:56Z</time>
      </trkpt>
      <trkpt lat="44.330971240997314" lon="11.356472969055176">
        <ele>394</ele>
        <time>2004-03-21T08:58:02Z</time>
      </trkpt>
      <trkpt lat="44.330692291259766" lon="11.35636568069458">
        <ele>395</ele>
        <time>2004-03-21T08:58:19Z</time>
      </trkpt>
      <trkpt lat="44.330413341522217" lon="11.356258392333984">
        <ele>396</ele>
        <time>2004-03-21T08:58:34Z</time>
      </trkpt>
      <trkpt lat="44.330198764801025" lon="11.356194019317627">
        <ele>399</ele>
        <time>2004-03-21T08:58:46Z</time>
      </trkpt>
      <trkpt lat="44.330005561932921" lon="11.356086730957031">
        <ele>396</ele>
        <time>2004-03-21T08:58:55Z</time>
      </trkpt>
      <trkpt lat="44.329919815063477" lon="11.355764865875244">
        <ele>395</ele>
        <time>2004-03-21T08:59:00Z</time>
      </trkpt>
      <trkpt lat="44.329662322998047" lon="11.355249881744385">
        <ele>394</ele>
        <time>2004-03-21T08:59:09Z</time>
      </trkpt>
      <trkpt lat="44.329383373260498" lon="11.355013763532043">
        <ele>394</ele>
        <time>2004-03-21T08:59:16Z</time>
      </trkpt>
      <trkpt lat="44.329254627227783" lon="11.354863559827209">
        <ele>395</ele>
        <time>2004-03-21T08:59:20Z</time>
      </trkpt>
      <trkpt lat="44.328932762145996" lon="11.354455864056945">
        <ele>396</ele>
        <time>2004-03-21T08:59:31Z</time>
      </trkpt>
      <trkpt lat="44.328868389129639" lon="11.354477405548096">
        <ele>396</ele>
        <time>2004-03-21T08:59:35Z</time>
      </trkpt>
      <trkpt lat="44.328525066375732" lon="11.354541778564453">
        <ele>395</ele>
        <time>2004-03-21T08:59:42Z</time>
      </trkpt>
      <trkpt lat="44.328331863507628" lon="11.354606235399842">
        <ele>397</ele>
        <time>2004-03-21T08:59:46Z</time>
      </trkpt>
      <trkpt lat="44.328010082244873" lon="11.35516413487494">
        <ele>398</ele>
        <time>2004-03-21T09:00:01Z</time>
      </trkpt>
      <trkpt lat="44.327731132507324" lon="11.35535717010498">
        <ele>398</ele>
        <time>2004-03-21T09:00:08Z</time>
      </trkpt>
      <trkpt lat="44.327602386474609" lon="11.355271339416504">
        <ele>397</ele>
        <time>2004-03-21T09:00:11Z</time>
      </trkpt>
      <trkpt lat="44.327430725097656" lon="11.355185508728027">
        <ele>395</ele>
        <time>2004-03-21T09:00:14Z</time>
      </trkpt>
      <trkpt lat="44.32734489440918" lon="11.355249881744385">
        <ele>395</ele>
        <time>2004-03-21T09:00:16Z</time>
      </trkpt>
      <trkpt lat="44.327280521392822" lon="11.3553786277771">
        <ele>394</ele>
        <time>2004-03-21T09:00:19Z</time>
      </trkpt>
      <trkpt lat="44.327259063720703" lon="11.355485916137695">
        <ele>394</ele>
        <time>2004-03-21T09:00:20Z</time>
      </trkpt>
      <trkpt lat="44.327280521392822" lon="11.355743408203125">
        <ele>394</ele>
        <time>2004-03-21T09:00:23Z</time>
      </trkpt>
      <trkpt lat="44.327259063720703" lon="11.356086730957031">
        <ele>394</ele>
        <time>2004-03-21T09:00:26Z</time>
      </trkpt>
      <trkpt lat="44.327001571655273" lon="11.356172561645508">
        <ele>395</ele>
        <time>2004-03-21T09:00:30Z</time>
      </trkpt>
      <trkpt lat="44.326872825622559" lon="11.356194019317627">
        <ele>396</ele>
        <time>2004-03-21T09:00:33Z</time>
      </trkpt>
      <trkpt lat="44.326765537261963" lon="11.356258392333984">
        <ele>397</ele>
        <time>2004-03-21T09:00:36Z</time>
      </trkpt>
      <trkpt lat="44.326357841491699" lon="11.356322765350342">
        <ele>398</ele>
        <time>2004-03-21T09:00:47Z</time>
      </trkpt>
      <trkpt lat="44.326121807098389" lon="11.356215476989746">
        <ele>396</ele>
        <time>2004-03-21T09:00:52Z</time>
      </trkpt>
      <trkpt lat="44.32558536529541" lon="11.35636568069458">
        <ele>396</ele>
        <time>2004-03-21T09:01:06Z</time>
      </trkpt>
      <trkpt lat="44.325520992279053" lon="11.356408596038818">
        <ele>398</ele>
        <time>2004-03-21T09:01:10Z</time>
      </trkpt>
      <trkpt lat="44.325306415557861" lon="11.356515884399414">
        <ele>401</ele>
        <time>2004-03-21T09:01:22Z</time>
      </trkpt>
      <trkpt lat="44.325113296508789" lon="11.356644630432129">
        <ele>405</ele>
        <time>2004-03-21T09:01:35Z</time>
      </trkpt>
      <trkpt lat="44.32509183883667" lon="11.356709003448486">
        <ele>406</ele>
        <time>2004-03-21T09:01:39Z</time>
      </trkpt>
      <trkpt lat="44.324963092803955" lon="11.356902122497559">
        <ele>410</ele>
        <time>2004-03-21T09:01:53Z</time>
      </trkpt>
      <trkpt lat="44.324898719787598" lon="11.356988037005067">
        <ele>412</ele>
        <time>2004-03-21T09:01:59Z</time>
      </trkpt>
      <trkpt lat="44.324877262115479" lon="11.357052326202393">
        <ele>413</ele>
        <time>2004-03-21T09:02:04Z</time>
      </trkpt>
      <trkpt lat="44.324855804443359" lon="11.357073783874512">
        <ele>413</ele>
        <time>2004-03-21T09:02:05Z</time>
      </trkpt>
      <trkpt lat="44.324727058410645" lon="11.356966495513916">
        <ele>417</ele>
        <time>2004-03-21T09:02:19Z</time>
      </trkpt>
      <trkpt lat="44.32459831237793" lon="11.356709003448486">
        <ele>420</ele>
        <time>2004-03-21T09:02:34Z</time>
      </trkpt>
      <trkpt lat="44.324533939361572" lon="11.356580341234803">
        <ele>423</ele>
        <time>2004-03-21T09:02:42Z</time>
      </trkpt>
      <trkpt lat="44.324254989624023" lon="11.356515884399414">
        <ele>426</ele>
        <time>2004-03-21T09:02:55Z</time>
      </trkpt>
      <trkpt lat="44.324104785919189" lon="11.356709003448486">
        <ele>429</ele>
        <time>2004-03-21T09:03:09Z</time>
      </trkpt>
      <trkpt lat="44.324319362640381" lon="11.357309818267822">
        <ele>431</ele>
        <time>2004-03-21T09:03:25Z</time>
      </trkpt>
      <trkpt lat="44.324362277984619" lon="11.357631683349609">
        <ele>432</ele>
        <time>2004-03-21T09:03:47Z</time>
      </trkpt>
      <trkpt lat="44.3243408203125" lon="11.357653141021729">
        <ele>433</ele>
        <time>2004-03-21T09:03:50Z</time>
      </trkpt>
      <trkpt lat="44.324319362640381" lon="11.357760429382324">
        <ele>433</ele>
        <time>2004-03-21T09:03:55Z</time>
      </trkpt>
      <trkpt lat="44.324276363477111" lon="11.358039379119873">
        <ele>436</ele>
        <time>2004-03-21T09:04:14Z</time>
      </trkpt>
      <trkpt lat="44.324190616607666" lon="11.358296871185303">
        <ele>438</ele>
        <time>2004-03-21T09:04:34Z</time>
      </trkpt>
      <trkpt lat="44.324705600738525" lon="11.358726024627686">
        <ele>435</ele>
        <time>2004-03-21T09:12:41Z</time>
      </trkpt>
      <trkpt lat="44.325220584869385" lon="11.35906926356256">
        <ele>434</ele>
        <time>2004-03-21T09:12:57Z</time>
      </trkpt>
      <trkpt lat="44.325714111328125" lon="11.359283924102783">
        <ele>432</ele>
        <time>2004-03-21T09:13:04Z</time>
      </trkpt>
      <trkpt lat="44.325778484344482" lon="11.359305381774902">
        <ele>432</ele>
        <time>2004-03-21T09:13:05Z</time>
      </trkpt>
      <trkpt lat="44.325950061902404" lon="11.359283924102783">
        <ele>429</ele>
        <time>2004-03-21T09:13:08Z</time>
      </trkpt>
      <trkpt lat="44.326143264770508" lon="11.359283924102783">
        <ele>427</ele>
        <time>2004-03-21T09:13:11Z</time>
      </trkpt>
      <trkpt lat="44.326314926147461" lon="11.359326839447021">
        <ele>422</ele>
        <time>2004-03-21T09:13:15Z</time>
      </trkpt>
      <trkpt lat="44.326379299163818" lon="11.359369838610291">
        <ele>419</ele>
        <time>2004-03-21T09:13:17Z</time>
      </trkpt>
      <trkpt lat="44.326486587524414" lon="11.359519958496094">
        <ele>417</ele>
        <time>2004-03-21T09:13:20Z</time>
      </trkpt>
      <trkpt lat="44.32659387588501" lon="11.359734535217285">
        <ele>415</ele>
        <time>2004-03-21T09:13:23Z</time>
      </trkpt>
      <trkpt lat="44.326701164245605" lon="11.359970569610596">
        <ele>412</ele>
        <time>2004-03-21T09:13:27Z</time>
      </trkpt>
      <trkpt lat="44.326894283294678" lon="11.36012077331543">
        <ele>408</ele>
        <time>2004-03-21T09:13:31Z</time>
      </trkpt>
      <trkpt lat="44.327065860852599" lon="11.360270977020264">
        <ele>405</ele>
        <time>2004-03-21T09:13:34Z</time>
      </trkpt>
      <trkpt lat="44.32734489440918" lon="11.360764503479004">
        <ele>402</ele>
        <time>2004-03-21T09:13:41Z</time>
      </trkpt>
      <trkpt lat="44.327495098114014" lon="11.361172199249268">
        <ele>399</ele>
        <time>2004-03-21T09:13:47Z</time>
      </trkpt>
      <trkpt lat="44.327559471130371" lon="11.361300861462951">
        <ele>397</ele>
        <time>2004-03-21T09:13:49Z</time>
      </trkpt>
      <trkpt lat="44.327602386474609" lon="11.36136531829834">
        <ele>397</ele>
        <time>2004-03-21T09:13:50Z</time>
      </trkpt>
      <trkpt lat="44.327623760327697" lon="11.361687183380127">
        <ele>396</ele>
        <time>2004-03-21T09:13:54Z</time>
      </trkpt>
      <trkpt lat="44.327602386474609" lon="11.361944675445557">
        <ele>394</ele>
        <time>2004-03-21T09:13:59Z</time>
      </trkpt>
      <trkpt lat="44.327666759490967" lon="11.362202167510986">
        <ele>389</ele>
        <time>2004-03-21T09:14:04Z</time>
      </trkpt>
      <trkpt lat="44.327688217163086" lon="11.362373828887939">
        <ele>386</ele>
        <time>2004-03-21T09:14:07Z</time>
      </trkpt>
      <trkpt lat="44.327709674835205" lon="11.362652778625488">
        <ele>383</ele>
        <time>2004-03-21T09:14:11Z</time>
      </trkpt>
      <trkpt lat="44.327752590179443" lon="11.362824440002441">
        <ele>380</ele>
        <time>2004-03-21T09:14:14Z</time>
      </trkpt>
      <trkpt lat="44.327902793884277" lon="11.362910270690918">
        <ele>378</ele>
        <time>2004-03-21T09:14:17Z</time>
      </trkpt>
      <trkpt lat="44.328074539080262" lon="11.362974559888244">
        <ele>376</ele>
        <time>2004-03-21T09:14:20Z</time>
      </trkpt>
      <trkpt lat="44.328203201293945" lon="11.363039016723633">
        <ele>376</ele>
        <time>2004-03-21T09:14:22Z</time>
      </trkpt>
      <trkpt lat="44.328289031982422" lon="11.363146305084229">
        <ele>375</ele>
        <time>2004-03-21T09:14:24Z</time>
      </trkpt>
      <trkpt lat="44.328353404998779" lon="11.363296508789063">
        <ele>375</ele>
        <time>2004-03-21T09:14:26Z</time>
      </trkpt>
      <trkpt lat="44.328460693359375" lon="11.36359691619873">
        <ele>375</ele>
        <time>2004-03-21T09:14:30Z</time>
      </trkpt>
      <trkpt lat="44.328460693359375" lon="11.364047527313232">
        <ele>375</ele>
        <time>2004-03-21T09:14:36Z</time>
      </trkpt>
      <trkpt lat="44.328567981719971" lon="11.364541137591004">
        <ele>375</ele>
        <time>2004-03-21T09:14:42Z</time>
      </trkpt>
      <trkpt lat="44.32863243855536" lon="11.365163326263428">
        <ele>373</ele>
        <time>2004-03-21T09:14:49Z</time>
      </trkpt>
      <trkpt lat="44.328546524047852" lon="11.365592479705811">
        <ele>370</ele>
        <time>2004-03-21T09:14:53Z</time>
      </trkpt>
      <trkpt lat="44.328439235687256" lon="11.365807140246034">
        <ele>367</ele>
        <time>2004-03-21T09:14:55Z</time>
      </trkpt>
      <trkpt lat="44.327967166900635" lon="11.366407871246338">
        <ele>362</ele>
        <time>2004-03-21T09:15:02Z</time>
      </trkpt>
      <trkpt lat="44.327924335375428" lon="11.366493701934814">
        <ele>362</ele>
        <time>2004-03-21T09:15:03Z</time>
      </trkpt>
      <trkpt lat="44.327773964032531" lon="11.366837024688721">
        <ele>362</ele>
        <time>2004-03-21T09:15:07Z</time>
      </trkpt>
      <trkpt lat="44.327538013458252" lon="11.36711597442627">
        <ele>364</ele>
        <time>2004-03-21T09:15:12Z</time>
      </trkpt>
      <trkpt lat="44.327387809753418" lon="11.367201805114746">
        <ele>364</ele>
        <time>2004-03-21T09:15:15Z</time>
      </trkpt>
      <trkpt lat="44.327216064557433" lon="11.367223262786865">
        <ele>360</ele>
        <time>2004-03-21T09:21:27Z</time>
      </trkpt>
      <trkpt lat="44.327516639605165" lon="11.367545127868652">
        <ele>357</ele>
        <time>2004-03-21T09:21:38Z</time>
      </trkpt>
      <trkpt lat="44.327795505523682" lon="11.367802619934082">
        <ele>355</ele>
        <time>2004-03-21T09:21:51Z</time>
      </trkpt>
      <trkpt lat="44.328160285949707" lon="11.368167400360107">
        <ele>354</ele>
        <time>2004-03-21T09:22:07Z</time>
      </trkpt>
      <trkpt lat="44.328203201293945" lon="11.368467807769775">
        <ele>355</ele>
        <time>2004-03-21T09:22:16Z</time>
      </trkpt>
      <trkpt lat="44.328181659802794" lon="11.368618011474609">
        <ele>356</ele>
        <time>2004-03-21T09:22:20Z</time>
      </trkpt>
      <trkpt lat="44.328138828277588" lon="11.368918418884277">
        <ele>357</ele>
        <time>2004-03-21T09:22:34Z</time>
      </trkpt>
      <trkpt lat="44.328160285949707" lon="11.369197368621826">
        <ele>358</ele>
        <time>2004-03-21T09:23:13Z</time>
      </trkpt>
      <trkpt lat="44.328246116638184" lon="11.369304740801454">
        <ele>360</ele>
        <time>2004-03-21T09:23:19Z</time>
      </trkpt>
      <trkpt lat="44.328246116638184" lon="11.369304740801454">
        <ele>361</ele>
        <time>2004-03-21T09:23:23Z</time>
      </trkpt>
      <trkpt lat="44.328267574310303" lon="11.369240283966064">
        <ele>363</ele>
        <time>2004-03-21T09:23:33Z</time>
      </trkpt>
      <trkpt lat="44.328267574310303" lon="11.369240283966064">
        <ele>359</ele>
        <time>2004-03-21T09:23:39Z</time>
      </trkpt>
      <trkpt lat="44.328267574310303" lon="11.369240283966064">
        <ele>359</ele>
        <time>2004-03-21T09:23:40Z</time>
      </trkpt>
      <trkpt lat="44.328374862670898" lon="11.369304740801454">
        <ele>363</ele>
        <time>2004-03-21T09:28:14Z</time>
      </trkpt>
      <trkpt lat="44.328353404998779" lon="11.369304740801454">
        <ele>362</ele>
        <time>2004-03-21T09:28:27Z</time>
      </trkpt>
      <trkpt lat="44.328331863507628" lon="11.369304740801454">
        <ele>363</ele>
        <time>2004-03-21T09:28:43Z</time>
      </trkpt>
      <trkpt lat="44.328310489654541" lon="11.369390487670898">
        <ele>361</ele>
        <time>2004-03-21T09:28:53Z</time>
      </trkpt>
      <trkpt lat="44.328310489654541" lon="11.36956206522882">
        <ele>359</ele>
        <time>2004-03-21T09:28:57Z</time>
      </trkpt>
      <trkpt lat="44.328267574310303" lon="11.369733810424805">
        <ele>354</ele>
        <time>2004-03-21T09:29:00Z</time>
      </trkpt>
      <trkpt lat="44.328267574310303" lon="11.369862640276551">
        <ele>351</ele>
        <time>2004-03-21T09:29:04Z</time>
      </trkpt>
      <trkpt lat="44.328267574310303" lon="11.369884014129639">
        <ele>349</ele>
        <time>2004-03-21T09:29:06Z</time>
      </trkpt>
      <trkpt lat="44.328267574310303" lon="11.369948387145996">
        <ele>345</ele>
        <time>2004-03-21T09:29:10Z</time>
      </trkpt>
      <trkpt lat="44.328246116638184" lon="11.370012760162354">
        <ele>342</ele>
        <time>2004-03-21T09:29:13Z</time>
      </trkpt>
      <trkpt lat="44.328246116638184" lon="11.370162963867188">
        <ele>339</ele>
        <time>2004-03-21T09:29:22Z</time>
      </trkpt>
      <trkpt lat="44.328267574310303" lon="11.370227336883545">
        <ele>337</ele>
        <time>2004-03-21T09:29:38Z</time>
      </trkpt>
      <trkpt lat="44.328503608703613" lon="11.369905471801758">
        <ele>334</ele>
        <time>2004-03-21T09:30:00Z</time>
      </trkpt>
      <trkpt lat="44.328567981719971" lon="11.369862640276551">
        <ele>330</ele>
        <time>2004-03-21T09:30:04Z</time>
      </trkpt>
      <trkpt lat="44.328653812408447" lon="11.3698410987854">
        <ele>326</ele>
        <time>2004-03-21T09:30:08Z</time>
      </trkpt>
      <trkpt lat="44.328718185424805" lon="11.369819641113281">
        <ele>325</ele>
        <time>2004-03-21T09:30:11Z</time>
      </trkpt>
      <trkpt lat="44.328782558441162" lon="11.3698410987854">
        <ele>321</ele>
        <time>2004-03-21T09:30:14Z</time>
      </trkpt>
      <trkpt lat="44.328804016113281" lon="11.3698410987854">
        <ele>321</ele>
        <time>2004-03-21T09:30:15Z</time>
      </trkpt>
      <trkpt lat="44.329061508178711" lon="11.369969760999084">
        <ele>318</ele>
        <time>2004-03-21T09:30:29Z</time>
      </trkpt>
      <trkpt lat="44.329211711883545" lon="11.370055675506592">
        <ele>314</ele>
        <time>2004-03-21T09:30:36Z</time>
      </trkpt>
      <trkpt lat="44.329233169555664" lon="11.370119964703918">
        <ele>313</ele>
        <time>2004-03-21T09:30:38Z</time>
      </trkpt>
      <trkpt lat="44.329190338030457" lon="11.370184421539307">
        <ele>309</ele>
        <time>2004-03-21T09:31:39Z</time>
      </trkpt>
      <trkpt lat="44.329125881195068" lon="11.370184421539307">
        <ele>306</ele>
        <time>2004-03-21T09:31:44Z</time>
      </trkpt>
      <trkpt lat="44.329018592834473" lon="11.370162963867188">
        <ele>303</ele>
        <time>2004-03-21T09:31:49Z</time>
      </trkpt>
      <trkpt lat="44.328997135162354" lon="11.370141506195068">
        <ele>304</ele>
        <time>2004-03-21T09:32:01Z</time>
      </trkpt>
      <trkpt lat="44.328975677490234" lon="11.370184421539307">
        <ele>301</ele>
        <time>2004-03-21T09:37:38Z</time>
      </trkpt>
      <trkpt lat="44.328954219818115" lon="11.370291709899902">
        <ele>296</ele>
        <time>2004-03-21T09:37:42Z</time>
      </trkpt>
      <trkpt lat="44.328932762145996" lon="11.370398998260498">
        <ele>294</ele>
        <time>2004-03-21T09:37:45Z</time>
      </trkpt>
      <trkpt lat="44.328911304473877" lon="11.370549201965332">
        <ele>291</ele>
        <time>2004-03-21T09:37:48Z</time>
      </trkpt>
      <trkpt lat="44.328911304473877" lon="11.370613574981689">
        <ele>291</ele>
        <time>2004-03-21T09:37:49Z</time>
      </trkpt>
      <trkpt lat="44.328889762982726" lon="11.370785236358643">
        <ele>289</ele>
        <time>2004-03-21T09:37:52Z</time>
      </trkpt>
      <trkpt lat="44.328868389129639" lon="11.370956897735596">
        <ele>286</ele>
        <time>2004-03-21T09:37:55Z</time>
      </trkpt>
      <trkpt lat="44.328868389129639" lon="11.370999813079834">
        <ele>285</ele>
        <time>2004-03-21T09:37:56Z</time>
      </trkpt>
      <trkpt lat="44.328889762982726" lon="11.371364593505859">
        <ele>281</ele>
        <time>2004-03-21T09:38:02Z</time>
      </trkpt>
      <trkpt lat="44.328911304473877" lon="11.371557712554932">
        <ele>277</ele>
        <time>2004-03-21T09:38:06Z</time>
      </trkpt>
      <trkpt lat="44.328932762145996" lon="11.371707916259766">
        <ele>274</ele>
        <time>2004-03-21T09:38:09Z</time>
      </trkpt>
      <trkpt lat="44.328911304473877" lon="11.371815204620361">
        <ele>273</ele>
        <time>2004-03-21T09:38:11Z</time>
      </trkpt>
      <trkpt lat="44.32884693145752" lon="11.371922492980957">
        <ele>271</ele>
        <time>2004-03-21T09:38:15Z</time>
      </trkpt>
      <trkpt lat="44.328718185424805" lon="11.372029781341553">
        <ele>268</ele>
        <time>2004-03-21T09:38:21Z</time>
      </trkpt>
      <trkpt lat="44.328503608703613" lon="11.372115612030029">
        <ele>264</ele>
        <time>2004-03-21T09:38:27Z</time>
      </trkpt>
      <trkpt lat="44.328374862670898" lon="11.372179985046387">
        <ele>262</ele>
        <time>2004-03-21T09:38:32Z</time>
      </trkpt>
      <trkpt lat="44.328310489654541" lon="11.372244441881776">
        <ele>260</ele>
        <time>2004-03-21T09:38:35Z</time>
      </trkpt>
      <trkpt lat="44.328224658966064" lon="11.372287273406982">
        <ele>257</ele>
        <time>2004-03-21T09:38:41Z</time>
      </trkpt>
      <trkpt lat="44.328181659802794" lon="11.372308731079102">
        <ele>256</ele>
        <time>2004-03-21T09:38:43Z</time>
      </trkpt>
      <trkpt lat="44.327902793884277" lon="11.372823715209961">
        <ele>255</ele>
        <time>2004-03-21T09:38:45Z</time>
      </trkpt>
      <trkpt lat="44.327902793884277" lon="11.372888088226318">
        <ele>235</ele>
        <time>2004-03-21T09:41:28Z</time>
      </trkpt>
      <trkpt lat="44.327645301818848" lon="11.37260913848877">
        <ele>236</ele>
        <time>2004-03-21T09:41:45Z</time>
      </trkpt>
      <trkpt lat="44.327301979064941" lon="11.372244441881776">
        <ele>237</ele>
        <time>2004-03-21T09:42:07Z</time>
      </trkpt>
      <trkpt lat="44.32682991027832" lon="11.37179366312921">
        <ele>239</ele>
        <time>2004-03-21T09:42:32Z</time>
      </trkpt>
      <trkpt lat="44.326422214508057" lon="11.371235763654113">
        <ele>241</ele>
        <time>2004-03-21T09:42:56Z</time>
      </trkpt>
      <trkpt lat="44.326121807098389" lon="11.370270336046815">
        <ele>242</ele>
        <time>2004-03-21T09:43:21Z</time>
      </trkpt>
      <trkpt lat="44.325671195983887" lon="11.369261741638184">
        <ele>243</ele>
        <time>2004-03-21T09:43:47Z</time>
      </trkpt>
      <trkpt lat="44.324920177459717" lon="11.368510723114014">
        <ele>245</ele>
        <time>2004-03-21T09:44:14Z</time>
      </trkpt>
      <trkpt lat="44.324705600738525" lon="11.367716789245605">
        <ele>245</ele>
        <time>2004-03-21T09:44:32Z</time>
      </trkpt>
      <trkpt lat="44.324383735656738" lon="11.366879940032959">
        <ele>246</ele>
        <time>2004-03-21T09:44:51Z</time>
      </trkpt>
      <trkpt lat="44.32384729385376" lon="11.366386413574219">
        <ele>246</ele>
        <time>2004-03-21T09:45:08Z</time>
      </trkpt>
      <trkpt lat="44.323010360822082" lon="11.365442276000977">
        <ele>248</ele>
        <time>2004-03-21T09:45:36Z</time>
      </trkpt>
      <trkpt lat="44.322452461346984" lon="11.36486291885376">
        <ele>249</ele>
        <time>2004-03-21T09:45:55Z</time>
      </trkpt>
      <trkpt lat="44.322001934051514" lon="11.364712715148926">
        <ele>249</ele>
        <time>2004-03-21T09:46:07Z</time>
      </trkpt>
      <trkpt lat="44.321680068969727" lon="11.364583969116211">
        <ele>251</ele>
        <time>2004-03-21T09:46:16Z</time>
      </trkpt>
      <trkpt lat="44.320950508117676" lon="11.36385440826416">
        <ele>251</ele>
        <time>2004-03-21T09:46:39Z</time>
      </trkpt>
      <trkpt lat="44.32034969329834" lon="11.36361837387085">
        <ele>252</ele>
        <time>2004-03-21T09:46:55Z</time>
      </trkpt>
      <trkpt lat="44.319727420806885" lon="11.364047527313232">
        <ele>252</ele>
        <time>2004-03-21T09:47:13Z</time>
      </trkpt>
      <trkpt lat="44.319105064496398" lon="11.363918781280518">
        <ele>252</ele>
        <time>2004-03-21T09:47:31Z</time>
      </trkpt>
      <trkpt lat="44.31835412979126" lon="11.363382339477539">
        <ele>254</ele>
        <time>2004-03-21T09:47:54Z</time>
      </trkpt>
      <trkpt lat="44.317688858136535" lon="11.362888813018799">
        <ele>255</ele>
        <time>2004-03-21T09:48:15Z</time>
      </trkpt>
      <trkpt lat="44.317667484283447" lon="11.362867439165711">
        <ele>256</ele>
        <time>2004-03-21T09:48:17Z</time>
      </trkpt>
      <trkpt lat="44.317303206771612" lon="11.362810106948018">
        <ele>258</ele>
        <time>2004-03-21T09:48:28Z</time>
      </trkpt>
      <trkpt lat="44.317262973636389" lon="11.362818237394094">
        <ele>260</ele>
        <time>2004-03-21T09:48:29Z</time>
      </trkpt>
      <trkpt lat="44.316514637321234" lon="11.362997861579061">
        <ele>260</ele>
        <time>2004-03-21T09:48:45Z</time>
      </trkpt>
      <trkpt lat="44.315471677109599" lon="11.363306064158678">
        <ele>260</ele>
        <time>2004-03-21T09:49:08Z</time>
      </trkpt>
      <trkpt lat="44.315305380150676" lon="11.363504463806748">
        <ele>260</ele>
        <time>2004-03-21T09:49:15Z</time>
      </trkpt>
      <trkpt lat="44.315919438377023" lon="11.363653913140297">
        <ele>280</ele>
        <time>2003-05-25T08:31:47Z</time>
      </trkpt>
      <trkpt lat="44.316294193267822" lon="11.364133441820741">
        <ele>302</ele>
        <time>2003-05-25T08:32:44Z</time>
      </trkpt>
      <trkpt lat="44.31635856628418" lon="11.364154815673828">
        <ele>299</ele>
        <time>2003-05-25T08:32:49Z</time>
      </trkpt>
      <trkpt lat="44.316380023956299" lon="11.364154815673828">
        <ele>300</ele>
        <time>2003-05-25T08:32:50Z</time>
      </trkpt>
      <trkpt lat="44.316422939300537" lon="11.364176273345947">
        <ele>298</ele>
        <time>2003-05-25T08:32:54Z</time>
      </trkpt>
      <trkpt lat="44.316465938463807" lon="11.364219188690186">
        <ele>296</ele>
        <time>2003-05-25T08:32:58Z</time>
      </trkpt>
      <trkpt lat="44.316487312316895" lon="11.364262104034424">
        <ele>295</ele>
        <time>2003-05-25T08:33:01Z</time>
      </trkpt>
      <trkpt lat="44.316530227661133" lon="11.364305019378662">
        <ele>294</ele>
        <time>2003-05-25T08:33:05Z</time>
      </trkpt>
      <trkpt lat="44.316573059186339" lon="11.364433765411377">
        <ele>293</ele>
        <time>2003-05-25T08:33:12Z</time>
      </trkpt>
      <trkpt lat="44.31659460067749" lon="11.364541137591004">
        <ele>293</ele>
        <time>2003-05-25T08:33:18Z</time>
      </trkpt>
      <trkpt lat="44.31659460067749" lon="11.364927291870117">
        <ele>292</ele>
        <time>2003-05-25T08:33:38Z</time>
      </trkpt>
      <trkpt lat="44.31659460067749" lon="11.365334987640381">
        <ele>295</ele>
        <time>2003-05-25T08:33:57Z</time>
      </trkpt>
      <trkpt lat="44.316637516021729" lon="11.365807140246034">
        <ele>298</ele>
        <time>2003-05-25T08:34:19Z</time>
      </trkpt>
      <trkpt lat="44.316637516021729" lon="11.366171836853027">
        <ele>301</ele>
        <time>2003-05-25T08:34:36Z</time>
      </trkpt>
      <trkpt lat="44.316658973693848" lon="11.366493701934814">
        <ele>304</ele>
        <time>2003-05-25T08:34:51Z</time>
      </trkpt>
      <trkpt lat="44.316680431365967" lon="11.366879940032959">
        <ele>307</ele>
        <time>2003-05-25T08:35:09Z</time>
      </trkpt>
      <trkpt lat="44.316723262891173" lon="11.367223262786865">
        <ele>311</ele>
        <time>2003-05-25T08:35:26Z</time>
      </trkpt>
      <trkpt lat="44.316680431365967" lon="11.367673873901367">
        <ele>313</ele>
        <time>2003-05-25T08:35:47Z</time>
      </trkpt>
      <trkpt lat="44.316658973693848" lon="11.36788853444159">
        <ele>315</ele>
        <time>2003-05-25T08:35:57Z</time>
      </trkpt>
      <trkpt lat="44.316701889038086" lon="11.368167400360107">
        <ele>319</ele>
        <time>2003-05-25T08:36:13Z</time>
      </trkpt>
      <trkpt lat="44.316766262054443" lon="11.368339061737061">
        <ele>322</ele>
        <time>2003-05-25T08:36:24Z</time>
      </trkpt>
      <trkpt lat="44.316787719726563" lon="11.36836051940918">
        <ele>322</ele>
        <time>2003-05-25T08:36:25Z</time>
      </trkpt>
      <trkpt lat="44.316873634234071" lon="11.368596637621522">
        <ele>326</ele>
        <time>2003-05-25T08:36:40Z</time>
      </trkpt>
      <trkpt lat="44.316916465759277" lon="11.368832588195801">
        <ele>329</ele>
        <time>2003-05-25T08:36:54Z</time>
      </trkpt>
      <trkpt lat="44.316937923431396" lon="11.369132995605469">
        <ele>332</ele>
        <time>2003-05-25T08:37:08Z</time>
      </trkpt>
      <trkpt lat="44.317045211791992" lon="11.369433403015137">
        <ele>334</ele>
        <time>2003-05-25T08:37:24Z</time>
      </trkpt>
      <trkpt lat="44.317195415496826" lon="11.369647979736328">
        <ele>338</ele>
        <time>2003-05-25T08:37:38Z</time>
      </trkpt>
      <trkpt lat="44.317302703857422" lon="11.369884014129639">
        <ele>340</ele>
        <time>2003-05-25T08:37:49Z</time>
      </trkpt>
      <trkpt lat="44.317452907562256" lon="11.370034217834473">
        <ele>343</ele>
        <time>2003-05-25T08:38:00Z</time>
      </trkpt>
      <trkpt lat="44.317710399627686" lon="11.37009859085083">
        <ele>347</ele>
        <time>2003-05-25T08:38:16Z</time>
      </trkpt>
      <trkpt lat="44.31786060333252" lon="11.370119964703918">
        <ele>350</ele>
        <time>2003-05-25T08:38:28Z</time>
      </trkpt>
      <trkpt lat="44.318010807037354" lon="11.370162963867188">
        <ele>353</ele>
        <time>2003-05-25T08:38:40Z</time>
      </trkpt>
      <trkpt lat="44.3181396368891" lon="11.370141506195068">
        <ele>356</ele>
        <time>2003-05-25T08:38:53Z</time>
      </trkpt>
      <trkpt lat="44.3181396368891" lon="11.370119964703918">
        <ele>356</ele>
        <time>2003-05-25T08:38:54Z</time>
      </trkpt>
      <trkpt lat="44.318203926086426" lon="11.37009859085083">
        <ele>357</ele>
        <time>2003-05-25T08:39:02Z</time>
      </trkpt>
      <trkpt lat="44.318246841430664" lon="11.370184421539307">
        <ele>359</ele>
        <time>2003-05-25T08:39:50Z</time>
      </trkpt>
      <trkpt lat="44.318289840593934" lon="11.370205879211426">
        <ele>360</ele>
        <time>2003-05-25T08:39:54Z</time>
      </trkpt>
      <trkpt lat="44.318289840593934" lon="11.370291709899902">
        <ele>361</ele>
        <time>2003-05-25T08:40:00Z</time>
      </trkpt>
      <trkpt lat="44.318289840593934" lon="11.370377540588379">
        <ele>362</ele>
        <time>2003-05-25T08:40:06Z</time>
      </trkpt>
      <trkpt lat="44.318311214447021" lon="11.370463371276855">
        <ele>363</ele>
        <time>2003-05-25T08:40:12Z</time>
      </trkpt>
      <trkpt lat="44.318268299102783" lon="11.370506286621094">
        <ele>364</ele>
        <time>2003-05-25T08:40:16Z</time>
      </trkpt>
      <trkpt lat="44.318225383758545" lon="11.370720863342285">
        <ele>367</ele>
        <time>2003-05-25T08:40:28Z</time>
      </trkpt>
      <trkpt lat="44.318203926086426" lon="11.370849609375">
        <ele>369</ele>
        <time>2003-05-25T08:40:35Z</time>
      </trkpt>
      <trkpt lat="44.318203926086426" lon="11.370956897735596">
        <ele>370</ele>
        <time>2003-05-25T08:40:41Z</time>
      </trkpt>
      <trkpt lat="44.318182468414307" lon="11.371042728424072">
        <ele>370</ele>
        <time>2003-05-25T08:40:45Z</time>
      </trkpt>
      <trkpt lat="44.318161010742187" lon="11.371300220489502">
        <ele>373</ele>
        <time>2003-05-25T08:40:59Z</time>
      </trkpt>
      <trkpt lat="44.3181396368891" lon="11.371579170227051">
        <ele>377</ele>
        <time>2003-05-25T08:41:15Z</time>
      </trkpt>
      <trkpt lat="44.3181396368891" lon="11.37160062789917">
        <ele>377</ele>
        <time>2003-05-25T08:41:16Z</time>
      </trkpt>
      <trkpt lat="44.318118095397949" lon="11.371879577636719">
        <ele>380</ele>
        <time>2003-05-25T08:41:31Z</time>
      </trkpt>
      <trkpt lat="44.31809663772583" lon="11.372158527374268">
        <ele>382</ele>
        <time>2003-05-25T08:41:46Z</time>
      </trkpt>
      <trkpt lat="44.318010807037354" lon="11.372458934783936">
        <ele>385</ele>
        <time>2003-05-25T08:42:06Z</time>
      </trkpt>
      <trkpt lat="44.317967891693115" lon="11.372694969177246">
        <ele>388</ele>
        <time>2003-05-25T08:42:22Z</time>
      </trkpt>
      <trkpt lat="44.317946434020996" lon="11.373016834259033">
        <ele>392</ele>
        <time>2003-05-25T08:42:41Z</time>
      </trkpt>
      <trkpt lat="44.317924976348877" lon="11.373295783996582">
        <ele>395</ele>
        <time>2003-05-25T08:42:58Z</time>
      </trkpt>
      <trkpt lat="44.317967891693115" lon="11.373488903045654">
        <ele>398</ele>
        <time>2003-05-25T08:43:12Z</time>
      </trkpt>
      <trkpt lat="44.317989265546203" lon="11.373660564422607">
        <ele>402</ele>
        <time>2003-05-25T08:43:23Z</time>
      </trkpt>
      <trkpt lat="44.317989265546203" lon="11.373939514160156">
        <ele>405</ele>
        <time>2003-05-25T08:43:39Z</time>
      </trkpt>
      <trkpt lat="44.317946434020996" lon="11.374197006225586">
        <ele>406</ele>
        <time>2003-05-25T08:43:55Z</time>
      </trkpt>
      <trkpt lat="44.317924976348877" lon="11.374476039782166">
        <ele>409</ele>
        <time>2003-05-25T08:44:11Z</time>
      </trkpt>
      <trkpt lat="44.317882061004639" lon="11.374797821044922">
        <ele>413</ele>
        <time>2003-05-25T08:44:30Z</time>
      </trkpt>
      <trkpt lat="44.317796230316162" lon="11.374990940093994">
        <ele>415</ele>
        <time>2003-05-25T08:44:44Z</time>
      </trkpt>
      <trkpt lat="44.317753314971924" lon="11.375119686126709">
        <ele>418</ele>
        <time>2003-05-25T08:44:53Z</time>
      </trkpt>
      <trkpt lat="44.317946434020996" lon="11.375012397766113">
        <ele>421</ele>
        <time>2003-05-25T08:45:10Z</time>
      </trkpt>
      <trkpt lat="44.318053722381592" lon="11.37488373555243">
        <ele>423</ele>
        <time>2003-05-25T08:45:20Z</time>
      </trkpt>
      <trkpt lat="44.318203926086426" lon="11.374540328979492">
        <ele>425</ele>
        <time>2003-05-25T08:45:38Z</time>
      </trkpt>
      <trkpt lat="44.318311214447021" lon="11.374218463897705">
        <ele>428</ele>
        <time>2003-05-25T08:45:54Z</time>
      </trkpt>
      <trkpt lat="44.318375587463379" lon="11.374132633209229">
        <ele>430</ele>
        <time>2003-05-25T08:45:59Z</time>
      </trkpt>
      <trkpt lat="44.318461418151855" lon="11.374025261029601">
        <ele>431</ele>
        <time>2003-05-25T08:46:08Z</time>
      </trkpt>
      <trkpt lat="44.31859016418457" lon="11.373960971832275">
        <ele>436</ele>
        <time>2003-05-25T08:46:18Z</time>
      </trkpt>
      <trkpt lat="44.318740367889404" lon="11.373832225799561">
        <ele>439</ele>
        <time>2003-05-25T08:46:28Z</time>
      </trkpt>
      <trkpt lat="44.318740367889404" lon="11.373810768127441">
        <ele>439</ele>
        <time>2003-05-25T08:46:29Z</time>
      </trkpt>
      <trkpt lat="44.318912029266357" lon="11.373660564422607">
        <ele>440</ele>
        <time>2003-05-25T08:46:43Z</time>
      </trkpt>
      <trkpt lat="44.319105064496398" lon="11.373617565259337">
        <ele>437</ele>
        <time>2003-05-25T08:50:24Z</time>
      </trkpt>
      <trkpt lat="44.319148063659668" lon="11.373553276062012">
        <ele>435</ele>
        <time>2003-05-25T08:51:14Z</time>
      </trkpt>
      <trkpt lat="44.319212436676025" lon="11.373445987701416">
        <ele>432</ele>
        <time>2003-05-25T08:51:17Z</time>
      </trkpt>
      <trkpt lat="44.319362640380859" lon="11.373252868652344">
        <ele>427</ele>
        <time>2003-05-25T08:51:21Z</time>
      </trkpt>
      <trkpt lat="44.319384098052979" lon="11.373188495635986">
        <ele>427</ele>
        <time>2003-05-25T08:51:22Z</time>
      </trkpt>
      <trkpt lat="44.319427013397217" lon="11.37284517288208">
        <ele>424</ele>
        <time>2003-05-25T08:51:29Z</time>
      </trkpt>
      <trkpt lat="44.319427013397217" lon="11.372780799865723">
        <ele>424</ele>
        <time>2003-05-25T08:51:32Z</time>
      </trkpt>
      <trkpt lat="44.319427013397217" lon="11.372759258374572">
        <ele>422</ele>
        <time>2003-05-25T08:51:37Z</time>
      </trkpt>
      <trkpt lat="44.319469928741455" lon="11.372694969177246">
        <ele>422</ele>
        <time>2003-05-25T08:51:42Z</time>
      </trkpt>
      <trkpt lat="44.319512760266662" lon="11.372566223144531">
        <ele>420</ele>
        <time>2003-05-25T08:51:49Z</time>
      </trkpt>
      <trkpt lat="44.319534301757813" lon="11.372480392456055">
        <ele>417</ele>
        <time>2003-05-25T08:51:54Z</time>
      </trkpt>
      <trkpt lat="44.319555759429932" lon="11.372458934783936">
        <ele>417</ele>
        <time>2003-05-25T08:51:55Z</time>
      </trkpt>
      <trkpt lat="44.31959867477417" lon="11.372394561767578">
        <ele>414</ele>
        <time>2003-05-25T08:51:58Z</time>
      </trkpt>
      <trkpt lat="44.319705963134766" lon="11.372308731079102">
        <ele>410</ele>
        <time>2003-05-25T08:52:03Z</time>
      </trkpt>
      <trkpt lat="44.319727420806885" lon="11.372287273406982">
        <ele>410</ele>
        <time>2003-05-25T08:52:04Z</time>
      </trkpt>
      <trkpt lat="44.319813335314393" lon="11.372179985046387">
        <ele>406</ele>
        <time>2003-05-25T08:52:09Z</time>
      </trkpt>
      <trkpt lat="44.31983470916748" lon="11.372158527374268">
        <ele>405</ele>
        <time>2003-05-25T08:52:10Z</time>
      </trkpt>
      <trkpt lat="44.319877624511719" lon="11.372094238176942">
        <ele>402</ele>
        <time>2003-05-25T08:52:13Z</time>
      </trkpt>
      <trkpt lat="44.319899082183838" lon="11.372072696685791">
        <ele>402</ele>
        <time>2003-05-25T08:52:14Z</time>
      </trkpt>
      <trkpt lat="44.319920539855957" lon="11.371986865997314">
        <ele>400</ele>
        <time>2003-05-25T08:52:17Z</time>
      </trkpt>
      <trkpt lat="44.319984912872314" lon="11.371879577636719">
        <ele>398</ele>
        <time>2003-05-25T08:52:21Z</time>
      </trkpt>
      <trkpt lat="44.320049285888672" lon="11.37179366312921">
        <ele>394</ele>
        <time>2003-05-25T08:52:25Z</time>
      </trkpt>
      <trkpt lat="44.320263862609863" lon="11.371407508850098">
        <ele>393</ele>
        <time>2003-05-25T08:52:49Z</time>
      </trkpt>
      <trkpt lat="44.320199489593506" lon="11.371428966522217">
        <ele>393</ele>
        <time>2003-05-25T08:53:04Z</time>
      </trkpt>
      <trkpt lat="44.320135116577148" lon="11.371450424194336">
        <ele>393</ele>
        <time>2003-05-25T08:53:46Z</time>
      </trkpt>
      <trkpt lat="44.320135116577148" lon="11.371364593505859">
        <ele>390</ele>
        <time>2003-05-25T08:54:14Z</time>
      </trkpt>
      <trkpt lat="44.320135116577148" lon="11.371278762817383">
        <ele>389</ele>
        <time>2003-05-25T08:54:36Z</time>
      </trkpt>
      <trkpt lat="44.320156574249268" lon="11.371257305145264">
        <ele>388</ele>
        <time>2003-05-25T08:54:38Z</time>
      </trkpt>
      <trkpt lat="44.320199489593506" lon="11.37110710144043">
        <ele>384</ele>
        <time>2003-05-25T08:54:45Z</time>
      </trkpt>
      <trkpt lat="44.320220863446593" lon="11.370999813079834">
        <ele>381</ele>
        <time>2003-05-25T08:54:49Z</time>
      </trkpt>
      <trkpt lat="44.320285320281982" lon="11.370935440063477">
        <ele>377</ele>
        <time>2003-05-25T08:54:53Z</time>
      </trkpt>
      <trkpt lat="44.320435523986816" lon="11.370849609375">
        <ele>374</ele>
        <time>2003-05-25T08:54:56Z</time>
      </trkpt>
      <trkpt lat="44.320650100708008" lon="11.370785236358643">
        <ele>368</ele>
        <time>2003-05-25T08:55:00Z</time>
      </trkpt>
      <trkpt lat="44.320778762921691" lon="11.370785236358643">
        <ele>364</ele>
        <time>2003-05-25T08:55:02Z</time>
      </trkpt>
      <trkpt lat="44.320907592773438" lon="11.370763778686523">
        <ele>360</ele>
        <time>2003-05-25T08:55:04Z</time>
      </trkpt>
      <trkpt lat="44.320971965789795" lon="11.370763778686523">
        <ele>360</ele>
        <time>2003-05-25T08:55:05Z</time>
      </trkpt>
      <trkpt lat="44.321186458691955" lon="11.370742321014404">
        <ele>357</ele>
        <time>2003-05-25T08:55:08Z</time>
      </trkpt>
      <trkpt lat="44.321229541674256" lon="11.370742321014404">
        <ele>356</ele>
        <time>2003-05-25T08:55:09Z</time>
      </trkpt>
      <trkpt lat="44.321293830871582" lon="11.370656490325928">
        <ele>354</ele>
        <time>2003-05-25T08:55:12Z</time>
      </trkpt>
      <trkpt lat="44.321379661560059" lon="11.370506286621094">
        <ele>350</ele>
        <time>2003-05-25T08:55:15Z</time>
      </trkpt>
      <trkpt lat="44.321422576904297" lon="11.370420539751649">
        <ele>347</ele>
        <time>2003-05-25T08:55:17Z</time>
      </trkpt>
      <trkpt lat="44.321508407592773" lon="11.370205879211426">
        <ele>343</ele>
        <time>2003-05-25T08:55:21Z</time>
      </trkpt>
      <trkpt lat="44.321486866101623" lon="11.370077133178711">
        <ele>343</ele>
        <time>2003-05-25T08:55:34Z</time>
      </trkpt>
      <trkpt lat="44.321401119232178" lon="11.369905471801758">
        <ele>340</ele>
        <time>2003-05-25T08:56:02Z</time>
      </trkpt>
      <trkpt lat="44.321422576904297" lon="11.369905471801758">
        <ele>338</ele>
        <time>2003-05-25T08:56:05Z</time>
      </trkpt>
      <trkpt lat="44.321444034576416" lon="11.369905471801758">
        <ele>338</ele>
        <time>2003-05-25T08:56:06Z</time>
      </trkpt>
      <trkpt lat="44.321551322937012" lon="11.369905471801758">
        <ele>333</ele>
        <time>2003-05-25T08:56:12Z</time>
      </trkpt>
      <trkpt lat="44.321680068969727" lon="11.369926929473877">
        <ele>329</ele>
        <time>2003-05-25T08:56:18Z</time>
      </trkpt>
      <trkpt lat="44.321744358167052" lon="11.369926929473877">
        <ele>326</ele>
        <time>2003-05-25T08:56:21Z</time>
      </trkpt>
      <trkpt lat="44.321765899658203" lon="11.369926929473877">
        <ele>326</ele>
        <time>2003-05-25T08:56:22Z</time>
      </trkpt>
      <trkpt lat="44.32185173034668" lon="11.369905471801758">
        <ele>324</ele>
        <time>2003-05-25T08:56:25Z</time>
      </trkpt>
      <trkpt lat="44.321916103363037" lon="11.3698410987854">
        <ele>321</ele>
        <time>2003-05-25T08:56:28Z</time>
      </trkpt>
      <trkpt lat="44.321980476379395" lon="11.369776725769043">
        <ele>319</ele>
        <time>2003-05-25T08:56:31Z</time>
      </trkpt>
      <trkpt lat="44.32208776473999" lon="11.369690895080566">
        <ele>317</ele>
        <time>2003-05-25T08:56:35Z</time>
      </trkpt>
      <trkpt lat="44.322152137756348" lon="11.369540691375732">
        <ele>313</ele>
        <time>2003-05-25T08:56:41Z</time>
      </trkpt>
      <trkpt lat="44.322173595428467" lon="11.369497776031494">
        <ele>313</ele>
        <time>2003-05-25T08:56:42Z</time>
      </trkpt>
      <trkpt lat="44.322195136919618" lon="11.369433403015137">
        <ele>311</ele>
        <time>2003-05-25T08:56:45Z</time>
      </trkpt>
      <trkpt lat="44.322195136919618" lon="11.369218826293945">
        <ele>307</ele>
        <time>2003-05-25T08:56:54Z</time>
      </trkpt>
      <trkpt lat="44.322216510772705" lon="11.369197368621826">
        <ele>305</ele>
        <time>2003-05-25T08:56:56Z</time>
      </trkpt>
      <trkpt lat="44.322237968444824" lon="11.36911153793335">
        <ele>302</ele>
        <time>2003-05-25T08:57:00Z</time>
      </trkpt>
      <trkpt lat="44.322259426116943" lon="11.369068622589111">
        <ele>301</ele>
        <time>2003-05-25T08:57:02Z</time>
      </trkpt>
      <trkpt lat="44.322366714477539" lon="11.368896961212158">
        <ele>297</ele>
        <time>2003-05-25T08:57:22Z</time>
      </trkpt>
      <trkpt lat="44.322366714477539" lon="11.368875503540039">
        <ele>297</ele>
        <time>2003-05-25T08:57:23Z</time>
      </trkpt>
      <trkpt lat="44.322431087493896" lon="11.368789672851562">
        <ele>293</ele>
        <time>2003-05-25T08:57:29Z</time>
      </trkpt>
      <trkpt lat="44.322452461346984" lon="11.368768215179443">
        <ele>293</ele>
        <time>2003-05-25T08:57:30Z</time>
      </trkpt>
      <trkpt lat="44.322302341461182" lon="11.368618011474609">
        <ele>293</ele>
        <time>2003-05-25T08:58:13Z</time>
      </trkpt>
      <trkpt lat="44.322431087493896" lon="11.368403434753418">
        <ele>292</ele>
        <time>2003-05-25T08:58:33Z</time>
      </trkpt>
      <trkpt lat="44.322452461346984" lon="11.368231773376465">
        <ele>289</ele>
        <time>2003-05-25T08:58:41Z</time>
      </trkpt>
      <trkpt lat="44.322452461346984" lon="11.368124485015869">
        <ele>285</ele>
        <time>2003-05-25T08:58:44Z</time>
      </trkpt>
      <trkpt lat="44.322431087493896" lon="11.36810302734375">
        <ele>285</ele>
        <time>2003-05-25T08:58:45Z</time>
      </trkpt>
      <trkpt lat="44.322431087493896" lon="11.367995738983154">
        <ele>282</ele>
        <time>2003-05-25T08:58:48Z</time>
      </trkpt>
      <trkpt lat="44.322431087493896" lon="11.367909908294678">
        <ele>280</ele>
        <time>2003-05-25T08:58:51Z</time>
      </trkpt>
      <trkpt lat="44.322431087493896" lon="11.367802619934082">
        <ele>276</ele>
        <time>2003-05-25T08:58:54Z</time>
      </trkpt>
      <trkpt lat="44.322495460510254" lon="11.367630958557129">
        <ele>274</ele>
        <time>2003-05-25T08:59:00Z</time>
      </trkpt>
      <trkpt lat="44.322516918182373" lon="11.367587959393859">
        <ele>273</ele>
        <time>2003-05-25T08:59:02Z</time>
      </trkpt>
      <trkpt lat="44.32258129119873" lon="11.367480838671327">
        <ele>270</ele>
        <time>2003-05-25T08:59:07Z</time>
      </trkpt>
      <trkpt lat="44.322667121887207" lon="11.367373466491699">
        <ele>266</ele>
        <time>2003-05-25T08:59:11Z</time>
      </trkpt>
      <trkpt lat="44.323031902313232" lon="11.36660099029541">
        <ele>264</ele>
        <time>2003-05-25T08:59:15Z</time>
      </trkpt>
      <trkpt lat="44.32283878326416" lon="11.366193294525146">
        <ele>261</ele>
        <time>2003-05-25T08:59:21Z</time>
      </trkpt>
      <trkpt lat="44.323031902313232" lon="11.365699768066406">
        <ele>258</ele>
        <time>2003-05-25T09:07:30Z</time>
      </trkpt>
      <trkpt lat="44.323289394378662" lon="11.365957260131836">
        <ele>258</ele>
        <time>2003-05-25T09:07:44Z</time>
      </trkpt>
      <trkpt lat="44.32384729385376" lon="11.36660099029541">
        <ele>257</ele>
        <time>2003-05-25T09:08:02Z</time>
      </trkpt>
      <trkpt lat="44.323976039886475" lon="11.366729736328125">
        <ele>256</ele>
        <time>2003-05-25T09:08:06Z</time>
      </trkpt>
      <trkpt lat="44.3243408203125" lon="11.366901397705078">
        <ele>256</ele>
        <time>2003-05-25T09:08:15Z</time>
      </trkpt>
      <trkpt lat="44.324512481689453" lon="11.367158889770508">
        <ele>256</ele>
        <time>2003-05-25T09:08:19Z</time>
      </trkpt>
      <trkpt lat="44.324791431427002" lon="11.368017196655273">
        <ele>255</ele>
        <time>2003-05-25T09:08:31Z</time>
      </trkpt>
      <trkpt lat="44.324834262952209" lon="11.368167400360107">
        <ele>255</ele>
        <time>2003-05-25T09:08:33Z</time>
      </trkpt>
      <trkpt lat="44.326121807098389" lon="11.370141506195068">
        <ele>254</ele>
        <time>2003-05-25T09:08:55Z</time>
      </trkpt>
      <trkpt lat="44.326872825622559" lon="11.371879577636719">
        <ele>252</ele>
        <time>2003-05-25T09:09:17Z</time>
      </trkpt>
      <trkpt lat="44.327602386474609" lon="11.372544765472412">
        <ele>248</ele>
        <time>2003-05-25T09:09:29Z</time>
      </trkpt>
      <trkpt lat="44.327666759490967" lon="11.37260913848877">
        <ele>248</ele>
        <time>2003-05-25T09:09:30Z</time>
      </trkpt>
      <trkpt lat="44.328031539916992" lon="11.372952461242676">
        <ele>246</ele>
        <time>2003-05-25T09:09:36Z</time>
      </trkpt>
      <trkpt lat="44.329061508178711" lon="11.373210037127137">
        <ele>245</ele>
        <time>2003-05-25T09:09:50Z</time>
      </trkpt>
      <trkpt lat="44.329812526702881" lon="11.37333869934082">
        <ele>243</ele>
        <time>2003-05-25T09:10:00Z</time>
      </trkpt>
      <trkpt lat="44.330220222473145" lon="11.373767936602235">
        <ele>243</ele>
        <time>2003-05-25T09:10:06Z</time>
      </trkpt>
      <trkpt lat="44.330713665112853" lon="11.374497413635254">
        <ele>243</ele>
        <time>2003-05-25T09:10:19Z</time>
      </trkpt>
      <trkpt lat="44.330906867980957" lon="11.374497413635254">
        <ele>242</ele>
        <time>2003-05-25T09:10:24Z</time>
      </trkpt>
      <trkpt lat="44.331486225128174" lon="11.373703479766846">
        <ele>241</ele>
        <time>2003-05-25T09:10:36Z</time>
      </trkpt>
      <trkpt lat="44.332730770111084" lon="11.371986865997314">
        <ele>240</ele>
        <time>2003-05-25T09:11:00Z</time>
      </trkpt>
      <trkpt lat="44.332945263013244" lon="11.3718581199646">
        <ele>240</ele>
        <time>2003-05-25T09:11:04Z</time>
      </trkpt>
      <trkpt lat="44.333653533831239" lon="11.371450424194336">
        <ele>243</ele>
        <time>2003-05-25T09:11:18Z</time>
      </trkpt>
      <trkpt lat="44.333739280700684" lon="11.371428966522217">
        <ele>243</ele>
        <time>2003-05-25T09:11:20Z</time>
      </trkpt>
      <trkpt lat="44.334683418273926" lon="11.371665000915527">
        <ele>245</ele>
        <time>2003-05-25T09:11:38Z</time>
      </trkpt>
      <trkpt lat="44.335691928863525" lon="11.371750831604004">
        <ele>247</ele>
        <time>2003-05-25T09:11:58Z</time>
      </trkpt>
      <trkpt lat="44.336764812469482" lon="11.371665000915527">
        <ele>246</ele>
        <time>2003-05-25T09:12:23Z</time>
      </trkpt>
      <trkpt lat="44.337151134386659" lon="11.371471881866455">
        <ele>246</ele>
        <time>2003-05-25T09:12:35Z</time>
      </trkpt>
      <trkpt lat="44.337215423583984" lon="11.371364593505859">
        <ele>246</ele>
        <time>2003-05-25T09:12:38Z</time>
      </trkpt>
      <trkpt lat="44.338309764862061" lon="11.370742321014404">
        <ele>244</ele>
        <time>2003-05-25T09:12:53Z</time>
      </trkpt>
      <trkpt lat="44.338953495025635" lon="11.37059211730957">
        <ele>240</ele>
        <time>2003-05-25T09:13:02Z</time>
      </trkpt>
      <trkpt lat="44.339425563812256" lon="11.370506286621094">
        <ele>239</ele>
        <time>2003-05-25T09:13:08Z</time>
      </trkpt>
      <trkpt lat="44.33983325958252" lon="11.370398998260498">
        <ele>238</ele>
        <time>2003-05-25T09:13:13Z</time>
      </trkpt>
      <trkpt lat="44.339897632598877" lon="11.370377540588379">
        <ele>238</ele>
        <time>2003-05-25T09:13:14Z</time>
      </trkpt>
      <trkpt lat="44.340155124664307" lon="11.370291709899902">
        <ele>236</ele>
        <time>2003-05-25T09:13:17Z</time>
      </trkpt>
      <trkpt lat="44.340412616729736" lon="11.370184421539307">
        <ele>235</ele>
        <time>2003-05-25T09:13:20Z</time>
      </trkpt>
      <trkpt lat="44.34056282043457" lon="11.370077133178711">
        <ele>234</ele>
        <time>2003-05-25T09:13:22Z</time>
      </trkpt>
      <trkpt lat="44.341099262237549" lon="11.369476318359375">
        <ele>232</ele>
        <time>2003-05-25T09:13:30Z</time>
      </trkpt>
      <trkpt lat="44.341657161712646" lon="11.369411861523986">
        <ele>231</ele>
        <time>2003-05-25T09:13:35Z</time>
      </trkpt>
      <trkpt lat="44.341914737597108" lon="11.369583606719971">
        <ele>229</ele>
        <time>2003-05-25T09:13:38Z</time>
      </trkpt>
      <trkpt lat="44.342172062024474" lon="11.369733810424805">
        <ele>228</ele>
        <time>2003-05-25T09:13:41Z</time>
      </trkpt>
      <trkpt lat="44.342472637072206" lon="11.369905471801758">
        <ele>227</ele>
        <time>2003-05-25T09:13:45Z</time>
      </trkpt>
      <trkpt lat="44.34281587600708" lon="11.369798183441162">
        <ele>227</ele>
        <time>2003-05-25T09:13:50Z</time>
      </trkpt>
      <trkpt lat="44.34330940246582" lon="11.369476318359375">
        <ele>224</ele>
        <time>2003-05-25T09:13:57Z</time>
      </trkpt>
      <trkpt lat="44.343609809875488" lon="11.369261741638184">
        <ele>224</ele>
        <time>2003-05-25T09:14:02Z</time>
      </trkpt>
      <trkpt lat="44.34382438659668" lon="11.369261741638184">
        <ele>223</ele>
        <time>2003-05-25T09:14:06Z</time>
      </trkpt>
      <trkpt lat="44.344103336334229" lon="11.36934757232666">
        <ele>222</ele>
        <time>2003-05-25T09:14:19Z</time>
      </trkpt>
      <trkpt lat="44.344124794006348" lon="11.369304740801454">
        <ele>222</ele>
        <time>2003-05-25T09:14:22Z</time>
      </trkpt>
      <trkpt lat="44.344167709350586" lon="11.369218826293945">
        <ele>221</ele>
        <time>2003-05-25T09:14:27Z</time>
      </trkpt>
      <trkpt lat="44.344274997711182" lon="11.369068622589111">
        <ele>219</ele>
        <time>2003-05-25T09:14:32Z</time>
      </trkpt>
      <trkpt lat="44.344661235809326" lon="11.368381977081299">
        <ele>219</ele>
        <time>2003-05-25T09:17:59Z</time>
      </trkpt>
      <trkpt lat="44.344725608825684" lon="11.368253231048584">
        <ele>219</ele>
        <time>2003-05-25T09:18:04Z</time>
      </trkpt>
      <trkpt lat="44.34506893157959" lon="11.36784553527832">
        <ele>219</ele>
        <time>2003-05-25T09:18:21Z</time>
      </trkpt>
      <trkpt lat="44.345283508300781" lon="11.367802619934082">
        <ele>220</ele>
        <time>2003-05-25T09:18:29Z</time>
      </trkpt>
      <trkpt lat="44.345455169677734" lon="11.368188941851258">
        <ele>223</ele>
        <time>2003-05-25T09:18:45Z</time>
      </trkpt>
      <trkpt lat="44.34551945887506" lon="11.36836051940918">
        <ele>225</ele>
        <time>2003-05-25T09:18:54Z</time>
      </trkpt>
      <trkpt lat="44.345712661743164" lon="11.368210315704346">
        <ele>227</ele>
        <time>2003-05-25T09:19:06Z</time>
      </trkpt>
      <trkpt lat="44.345734119415283" lon="11.367824077606201">
        <ele>229</ele>
        <time>2003-05-25T09:19:22Z</time>
      </trkpt>
      <trkpt lat="44.345605373382568" lon="11.367330634966493">
        <ele>232</ele>
        <time>2003-05-25T09:19:42Z</time>
      </trkpt>
      <trkpt lat="44.345455169677734" lon="11.366901397705078">
        <ele>236</ele>
        <time>2003-05-25T09:20:00Z</time>
      </trkpt>
      <trkpt lat="44.345347881317139" lon="11.366472160443664">
        <ele>238</ele>
        <time>2003-05-25T09:20:17Z</time>
      </trkpt>
      <trkpt lat="44.345283508300781" lon="11.366086006164551">
        <ele>240</ele>
        <time>2003-05-25T09:20:32Z</time>
      </trkpt>
      <trkpt lat="44.345240592956543" lon="11.365699768066406">
        <ele>244</ele>
        <time>2003-05-25T09:20:53Z</time>
      </trkpt>
      <trkpt lat="44.34532642364502" lon="11.3656569365412">
        <ele>245</ele>
        <time>2003-05-25T09:20:58Z</time>
      </trkpt>
      <trkpt lat="44.345390796661377" lon="11.365721225738525">
        <ele>246</ele>
        <time>2003-05-25T09:21:05Z</time>
      </trkpt>
      <trkpt lat="44.345583915710449" lon="11.366086006164551">
        <ele>248</ele>
        <time>2003-05-25T09:21:23Z</time>
      </trkpt>
      <trkpt lat="44.345777034759521" lon="11.366429328918457">
        <ele>251</ele>
        <time>2003-05-25T09:21:41Z</time>
      </trkpt>
      <trkpt lat="44.345820033922791" lon="11.366450786590576">
        <ele>251</ele>
        <time>2003-05-25T09:21:44Z</time>
      </trkpt>
      <trkpt lat="44.346163272857666" lon="11.366193294525146">
        <ele>255</ele>
        <time>2003-05-25T09:22:04Z</time>
      </trkpt>
      <trkpt lat="44.346249103546143" lon="11.36610746383667">
        <ele>256</ele>
        <time>2003-05-25T09:22:10Z</time>
      </trkpt>
      <trkpt lat="44.346442222595215" lon="11.366214836016297">
        <ele>259</ele>
        <time>2003-05-25T09:22:24Z</time>
      </trkpt>
      <trkpt lat="44.346399307250977" lon="11.366665363311768">
        <ele>261</ele>
        <time>2003-05-25T09:22:42Z</time>
      </trkpt>
      <trkpt lat="44.346506595611572" lon="11.366751194000244">
        <ele>264</ele>
        <time>2003-05-25T09:22:54Z</time>
      </trkpt>
      <trkpt lat="44.346613883972168" lon="11.366386413574219">
        <ele>265</ele>
        <time>2003-05-25T09:23:09Z</time>
      </trkpt>
      <trkpt lat="44.346656799316406" lon="11.365957260131836">
        <ele>269</ele>
        <time>2003-05-25T09:23:25Z</time>
      </trkpt>
      <trkpt lat="44.346699714660645" lon="11.365485191345215">
        <ele>272</ele>
        <time>2003-05-25T09:23:42Z</time>
      </trkpt>
      <trkpt lat="44.346764087677002" lon="11.365420818328857">
        <ele>274</ele>
        <time>2003-05-25T09:23:47Z</time>
      </trkpt>
      <trkpt lat="44.346892833709717" lon="11.365399360656738">
        <ele>277</ele>
        <time>2003-05-25T09:24:01Z</time>
      </trkpt>
      <trkpt lat="44.347236240282655" lon="11.365356361493468">
        <ele>280</ele>
        <time>2003-05-25T09:24:22Z</time>
      </trkpt>
      <trkpt lat="44.347622394561768" lon="11.364884376525879">
        <ele>282</ele>
        <time>2003-05-25T09:24:39Z</time>
      </trkpt>
      <trkpt lat="44.348008632659912" lon="11.364519596099854">
        <ele>285</ele>
        <time>2003-05-25T09:25:00Z</time>
      </trkpt>
      <trkpt lat="44.348266124725342" lon="11.364326477050781">
        <ele>288</ele>
        <time>2003-05-25T09:25:13Z</time>
      </trkpt>
      <trkpt lat="44.34856653213501" lon="11.364090358838439">
        <ele>291</ele>
        <time>2003-05-25T09:25:27Z</time>
      </trkpt>
      <trkpt lat="44.348888397216797" lon="11.363940238952637">
        <ele>293</ele>
        <time>2003-05-25T09:25:43Z</time>
      </trkpt>
      <trkpt lat="44.349317634478211" lon="11.363768577575684">
        <ele>294</ele>
        <time>2003-05-25T09:26:01Z</time>
      </trkpt>
      <trkpt lat="44.349746704101563" lon="11.36361837387085">
        <ele>296</ele>
        <time>2003-05-25T09:26:20Z</time>
      </trkpt>
      <trkpt lat="44.350261688232422" lon="11.363425338640809">
        <ele>298</ele>
        <time>2003-05-25T09:26:41Z</time>
      </trkpt>
      <trkpt lat="44.350347518920898" lon="11.363339424133301">
        <ele>298</ele>
        <time>2003-05-25T09:26:46Z</time>
      </trkpt>
      <trkpt lat="44.350411891937256" lon="11.363554000854492">
        <ele>299</ele>
        <time>2003-05-25T09:26:52Z</time>
      </trkpt>
      <trkpt lat="44.350476264953613" lon="11.36436939239502">
        <ele>300</ele>
        <time>2003-05-25T09:27:16Z</time>
      </trkpt>
      <trkpt lat="44.350497722625732" lon="11.364669799804688">
        <ele>300</ele>
        <time>2003-05-25T09:27:21Z</time>
      </trkpt>
      <trkpt lat="44.350583637133241" lon="11.365957260131836">
        <ele>301</ele>
        <time>2003-05-25T09:27:42Z</time>
      </trkpt>
      <trkpt lat="44.350733840838075" lon="11.366686820983887">
        <ele>304</ele>
        <time>2003-05-25T09:28:02Z</time>
      </trkpt>
      <trkpt lat="44.350862503051758" lon="11.36709451675415">
        <ele>308</ele>
        <time>2003-05-25T09:28:18Z</time>
      </trkpt>
      <trkpt lat="44.350948333740234" lon="11.367416381835938">
        <ele>311</ele>
        <time>2003-05-25T09:28:31Z</time>
      </trkpt>
      <trkpt lat="44.350991165265441" lon="11.367587959393859">
        <ele>314</ele>
        <time>2003-05-25T09:28:38Z</time>
      </trkpt>
      <trkpt lat="44.350969791412354" lon="11.368038738146424">
        <ele>317</ele>
        <time>2003-05-25T09:28:53Z</time>
      </trkpt>
      <trkpt lat="44.350991165265441" lon="11.368596637621522">
        <ele>318</ele>
        <time>2003-05-25T09:29:11Z</time>
      </trkpt>
      <trkpt lat="44.351248741149902" lon="11.368961334228516">
        <ele>320</ele>
        <time>2003-05-25T09:29:30Z</time>
      </trkpt>
      <trkpt lat="44.351334571838379" lon="11.369025707244873">
        <ele>319</ele>
        <time>2003-05-25T09:29:33Z</time>
      </trkpt>
      <trkpt lat="44.351527690887451" lon="11.36915453709662">
        <ele>319</ele>
        <time>2003-05-25T09:29:37Z</time>
      </trkpt>
      <trkpt lat="44.351828098297119" lon="11.369326114654541">
        <ele>317</ele>
        <time>2003-05-25T09:29:43Z</time>
      </trkpt>
      <trkpt lat="44.351935386657715" lon="11.369647979736328">
        <ele>318</ele>
        <time>2003-05-25T09:29:49Z</time>
      </trkpt>
      <trkpt lat="44.352235794067383" lon="11.369991302490234">
        <ele>317</ele>
        <time>2003-05-25T09:29:56Z</time>
      </trkpt>
      <trkpt lat="44.352815235033631" lon="11.370699405670166">
        <ele>315</ele>
        <time>2003-05-25T09:30:07Z</time>
      </trkpt>
      <trkpt lat="44.353029727935791" lon="11.370956897735596">
        <ele>318</ele>
        <time>2003-05-25T09:30:16Z</time>
      </trkpt>
      <trkpt lat="44.353179931640625" lon="11.37110710144043">
        <ele>320</ele>
        <time>2003-05-25T09:30:23Z</time>
      </trkpt>
      <trkpt lat="44.353373134508729" lon="11.371321678161621">
        <ele>324</ele>
        <time>2003-05-25T09:30:34Z</time>
      </trkpt>
      <trkpt lat="44.35354471206665" lon="11.371471881866455">
        <ele>327</ele>
        <time>2003-05-25T09:30:49Z</time>
      </trkpt>
      <trkpt lat="44.353759288787842" lon="11.371557712554932">
        <ele>330</ele>
        <time>2003-05-25T09:31:03Z</time>
      </trkpt>
      <trkpt lat="44.353780662640929" lon="11.371579170227051">
        <ele>331</ele>
        <time>2003-05-25T09:31:05Z</time>
      </trkpt>
      <trkpt lat="44.353888034820557" lon="11.371622085571289">
        <ele>333</ele>
        <time>2003-05-25T09:31:13Z</time>
      </trkpt>
      <trkpt lat="44.354081237688661" lon="11.371686458587646">
        <ele>336</ele>
        <time>2003-05-25T09:31:28Z</time>
      </trkpt>
      <trkpt lat="44.354209899902344" lon="11.371922492980957">
        <ele>339</ele>
        <time>2003-05-25T09:31:42Z</time>
      </trkpt>
      <trkpt lat="44.354338562116027" lon="11.372222900390625">
        <ele>342</ele>
        <time>2003-05-25T09:32:00Z</time>
      </trkpt>
      <trkpt lat="44.354488765820861" lon="11.372115612030029">
        <ele>343</ele>
        <time>2003-05-25T09:32:13Z</time>
      </trkpt>
      <trkpt lat="44.354703426361084" lon="11.372051239013672">
        <ele>346</ele>
        <time>2003-05-25T09:32:27Z</time>
      </trkpt>
      <trkpt lat="44.355046665295959" lon="11.372029781341553">
        <ele>350</ele>
        <time>2003-05-25T09:32:50Z</time>
      </trkpt>
      <trkpt lat="44.355068206787109" lon="11.372051239013672">
        <ele>351</ele>
        <time>2003-05-25T09:32:53Z</time>
      </trkpt>
      <trkpt lat="44.355218410491943" lon="11.372029781341553">
        <ele>354</ele>
        <time>2003-05-25T09:33:04Z</time>
      </trkpt>
      <trkpt lat="44.355390071868896" lon="11.372029781341553">
        <ele>357</ele>
        <time>2003-05-25T09:33:18Z</time>
      </trkpt>
      <trkpt lat="44.35554027557373" lon="11.372029781341553">
        <ele>361</ele>
        <time>2003-05-25T09:33:29Z</time>
      </trkpt>
      <trkpt lat="44.35556173324585" lon="11.372029781341553">
        <ele>361</ele>
        <time>2003-05-25T09:33:30Z</time>
      </trkpt>
      <trkpt lat="44.355711936950684" lon="11.372029781341553">
        <ele>364</ele>
        <time>2003-05-25T09:33:42Z</time>
      </trkpt>
      <trkpt lat="44.355883598327637" lon="11.372029781341553">
        <ele>367</ele>
        <time>2003-05-25T09:33:55Z</time>
      </trkpt>
      <trkpt lat="44.356141090393066" lon="11.371965408325195">
        <ele>371</ele>
        <time>2003-05-25T09:34:15Z</time>
      </trkpt>
      <trkpt lat="44.356420040130615" lon="11.372008323669434">
        <ele>372</ele>
        <time>2003-05-25T09:34:33Z</time>
      </trkpt>
      <trkpt lat="44.356741905212402" lon="11.372137069702148">
        <ele>372</ele>
        <time>2003-05-25T09:34:50Z</time>
      </trkpt>
      <trkpt lat="44.357106685638428" lon="11.372222900390625">
        <ele>368</ele>
        <time>2003-05-25T09:35:03Z</time>
      </trkpt>
      <trkpt lat="44.357707500457764" lon="11.372523307800293">
        <ele>366</ele>
        <time>2003-05-25T09:35:13Z</time>
      </trkpt>
      <trkpt lat="44.358437061309814" lon="11.37310266494751">
        <ele>367</ele>
        <time>2003-05-25T09:35:28Z</time>
      </trkpt>
      <trkpt lat="44.358951961621642" lon="11.373445987701416">
        <ele>365</ele>
        <time>2003-05-25T09:35:40Z</time>
      </trkpt>
      <trkpt lat="44.359853267669678" lon="11.373939514160156">
        <ele>364</ele>
        <time>2003-05-25T09:35:57Z</time>
      </trkpt>
      <trkpt lat="44.360196590423584" lon="11.374175464734435">
        <ele>361</ele>
        <time>2003-05-25T09:36:01Z</time>
      </trkpt>
      <trkpt lat="44.360475540161133" lon="11.374325836077332">
        <ele>358</ele>
        <time>2003-05-25T09:36:04Z</time>
      </trkpt>
      <trkpt lat="44.360561370849609" lon="11.374368667602539">
        <ele>358</ele>
        <time>2003-05-25T09:36:05Z</time>
      </trkpt>
      <trkpt lat="44.360861778259277" lon="11.37484073638916">
        <ele>356</ele>
        <time>2003-05-25T09:36:10Z</time>
      </trkpt>
      <trkpt lat="44.361205101013184" lon="11.3753342628479">
        <ele>354</ele>
        <time>2003-05-25T09:36:16Z</time>
      </trkpt>
      <trkpt lat="44.361569881439209" lon="11.375634670257568">
        <ele>351</ele>
        <time>2003-05-25T09:36:21Z</time>
      </trkpt>
      <trkpt lat="44.36180591583252" lon="11.375870704650879">
        <ele>349</ele>
        <time>2003-05-25T09:36:24Z</time>
      </trkpt>
      <trkpt lat="44.362213611602783" lon="11.376299858093262">
        <ele>344</ele>
        <time>2003-05-25T09:36:29Z</time>
      </trkpt>
      <trkpt lat="44.362471103668213" lon="11.376557433977723">
        <ele>339</ele>
        <time>2003-05-25T09:36:32Z</time>
      </trkpt>
      <trkpt lat="44.362750137224793" lon="11.376814758405089">
        <ele>336</ele>
        <time>2003-05-25T09:36:35Z</time>
      </trkpt>
      <trkpt lat="44.363029003143311" lon="11.377007961273193">
        <ele>333</ele>
        <time>2003-05-25T09:36:38Z</time>
      </trkpt>
      <trkpt lat="44.36378002166748" lon="11.377394199371338">
        <ele>331</ele>
        <time>2003-05-25T09:36:48Z</time>
      </trkpt>
      <trkpt lat="44.364209175109863" lon="11.37758731842041">
        <ele>333</ele>
        <time>2003-05-25T09:36:58Z</time>
      </trkpt>
      <trkpt lat="44.36429500579834" lon="11.377608776092529">
        <ele>333</ele>
        <time>2003-05-25T09:37:00Z</time>
      </trkpt>
      <trkpt lat="44.364380836486816" lon="11.377608776092529">
        <ele>333</ele>
        <time>2003-05-25T09:37:02Z</time>
      </trkpt>
      <trkpt lat="44.364659786224365" lon="11.377651691436768">
        <ele>333</ele>
        <time>2003-05-25T09:37:07Z</time>
      </trkpt>
      <trkpt lat="44.364809989929199" lon="11.377758979797363">
        <ele>332</ele>
        <time>2003-05-25T09:37:10Z</time>
      </trkpt>
      <trkpt lat="44.365174770355225" lon="11.377694606781006">
        <ele>330</ele>
        <time>2003-05-25T09:37:16Z</time>
      </trkpt>
      <trkpt lat="44.365561008453369" lon="11.377437114715576">
        <ele>329</ele>
        <time>2003-05-25T09:37:23Z</time>
      </trkpt>
      <trkpt lat="44.365925788879395" lon="11.377286911010742">
        <ele>330</ele>
        <time>2003-05-25T09:37:29Z</time>
      </trkpt>
      <trkpt lat="44.36654806137085" lon="11.377394199371338">
        <ele>331</ele>
        <time>2003-05-25T09:37:41Z</time>
      </trkpt>
      <trkpt lat="44.366655265912414" lon="11.377415740862489">
        <ele>330</ele>
        <time>2003-05-25T09:37:43Z</time>
      </trkpt>
      <trkpt lat="44.366955840960145" lon="11.377651691436768">
        <ele>329</ele>
        <time>2003-05-25T09:37:48Z</time>
      </trkpt>
      <trkpt lat="44.367213165387511" lon="11.377909183502197">
        <ele>328</ele>
        <time>2003-05-25T09:37:53Z</time>
      </trkpt>
      <trkpt lat="44.367470741271973" lon="11.377952098846436">
        <ele>327</ele>
        <time>2003-05-25T09:37:58Z</time>
      </trkpt>
      <trkpt lat="44.368371963500977" lon="11.377780437469482">
        <ele>324</ele>
        <time>2003-05-25T09:38:13Z</time>
      </trkpt>
      <trkpt lat="44.368479335680604" lon="11.377737522125244">
        <ele>325</ele>
        <time>2003-05-25T09:38:15Z</time>
      </trkpt>
      <trkpt lat="44.36873666010797" lon="11.377651691436768">
        <ele>324</ele>
        <time>2003-05-25T09:38:20Z</time>
      </trkpt>
      <trkpt lat="44.368844032287598" lon="11.37758731842041">
        <ele>324</ele>
        <time>2003-05-25T09:38:22Z</time>
      </trkpt>
      <trkpt lat="44.368908405303955" lon="11.377480030059814">
        <ele>324</ele>
        <time>2003-05-25T09:38:24Z</time>
      </trkpt>
      <trkpt lat="44.369444763287902" lon="11.376729011535645">
        <ele>326</ele>
        <time>2003-05-25T09:38:37Z</time>
      </trkpt>
      <trkpt lat="44.36978816986084" lon="11.376385688781738">
        <ele>322</ele>
        <time>2003-05-25T09:38:44Z</time>
      </trkpt>
      <trkpt lat="44.369831085205078" lon="11.3763427734375">
        <ele>322</ele>
        <time>2003-05-25T09:38:45Z</time>
      </trkpt>
      <trkpt lat="44.370088577270508" lon="11.37608528137207">
        <ele>319</ele>
        <time>2003-05-25T09:38:51Z</time>
      </trkpt>
      <trkpt lat="44.370174407958984" lon="11.375999534502625">
        <ele>317</ele>
        <time>2003-05-25T09:38:53Z</time>
      </trkpt>
      <trkpt lat="44.37028169631958" lon="11.376063823699951">
        <ele>316</ele>
        <time>2003-05-25T09:38:56Z</time>
      </trkpt>
      <trkpt lat="44.370453441515565" lon="11.376364231109619">
        <ele>311</ele>
        <time>2003-05-25T09:38:59Z</time>
      </trkpt>
      <trkpt lat="44.37053918838501" lon="11.376492977142334">
        <ele>308</ele>
        <time>2003-05-25T09:39:00Z</time>
      </trkpt>
      <trkpt lat="44.37077522277832" lon="11.376771926879883">
        <ele>301</ele>
        <time>2003-05-25T09:39:03Z</time>
      </trkpt>
      <trkpt lat="44.371268665418029" lon="11.377115165814757">
        <ele>298</ele>
        <time>2003-05-25T09:39:08Z</time>
      </trkpt>
      <trkpt lat="44.371333122253418" lon="11.377201080322266">
        <ele>298</ele>
        <time>2003-05-25T09:39:09Z</time>
      </trkpt>
      <trkpt lat="44.371419036760926" lon="11.377265537157655">
        <ele>298</ele>
        <time>2003-05-25T09:39:10Z</time>
      </trkpt>
      <trkpt lat="44.372341632843018" lon="11.377909183502197">
        <ele>293</ele>
        <time>2003-05-25T09:39:20Z</time>
      </trkpt>
      <trkpt lat="44.372706413269043" lon="11.37810230255127">
        <ele>290</ele>
        <time>2003-05-25T09:39:24Z</time>
      </trkpt>
      <trkpt lat="44.37328577041626" lon="11.378467082977295">
        <ele>289</ele>
        <time>2003-05-25T09:39:31Z</time>
      </trkpt>
      <trkpt lat="44.373607635498047" lon="11.378424167633057">
        <ele>286</ele>
        <time>2003-05-25T09:39:35Z</time>
      </trkpt>
      <trkpt lat="44.373800838366151" lon="11.37833833694458">
        <ele>283</ele>
        <time>2003-05-25T09:39:37Z</time>
      </trkpt>
      <trkpt lat="44.373886585235596" lon="11.378316879272461">
        <ele>283</ele>
        <time>2003-05-25T09:39:38Z</time>
      </trkpt>
      <trkpt lat="44.374186992645264" lon="11.378230964764953">
        <ele>281</ele>
        <time>2003-05-25T09:39:41Z</time>
      </trkpt>
      <trkpt lat="44.374465858563781" lon="11.378273963928223">
        <ele>276</ele>
        <time>2003-05-25T09:39:44Z</time>
      </trkpt>
      <trkpt lat="44.374659061431885" lon="11.378402709960938">
        <ele>272</ele>
        <time>2003-05-25T09:39:46Z</time>
      </trkpt>
      <trkpt lat="44.374744892120361" lon="11.378467082977295">
        <ele>270</ele>
        <time>2003-05-25T09:39:47Z</time>
      </trkpt>
      <trkpt lat="44.375431537628174" lon="11.378917694091797">
        <ele>264</ele>
        <time>2003-05-25T09:39:54Z</time>
      </trkpt>
      <trkpt lat="44.375689029693604" lon="11.379153728485107">
        <ele>261</ele>
        <time>2003-05-25T09:39:57Z</time>
      </trkpt>
      <trkpt lat="44.375860691070557" lon="11.379303932189941">
        <ele>259</ele>
        <time>2003-05-25T09:39:59Z</time>
      </trkpt>
      <trkpt lat="44.376139640808105" lon="11.379346763715148">
        <ele>258</ele>
        <time>2003-05-25T09:40:03Z</time>
      </trkpt>
      <trkpt lat="44.376225471496582" lon="11.379303932189941">
        <ele>257</ele>
        <time>2003-05-25T09:40:04Z</time>
      </trkpt>
      <trkpt lat="44.376418590545654" lon="11.379175186157227">
        <ele>254</ele>
        <time>2003-05-25T09:40:07Z</time>
      </trkpt>
      <trkpt lat="44.376676082611084" lon="11.379046440124512">
        <ele>251</ele>
        <time>2003-05-25T09:40:10Z</time>
      </trkpt>
      <trkpt lat="44.377040863037109" lon="11.378767490386963">
        <ele>249</ele>
        <time>2003-05-25T09:40:14Z</time>
      </trkpt>
      <trkpt lat="44.377555763348937" lon="11.378681659698486">
        <ele>245</ele>
        <time>2003-05-25T09:40:19Z</time>
      </trkpt>
      <trkpt lat="44.377663135528564" lon="11.378703117370605">
        <ele>245</ele>
        <time>2003-05-25T09:40:20Z</time>
      </trkpt>
      <trkpt lat="44.377834796905518" lon="11.378767490386963">
        <ele>243</ele>
        <time>2003-05-25T09:40:22Z</time>
      </trkpt>
      <trkpt lat="44.378049373626709" lon="11.378939235582948">
        <ele>238</ele>
        <time>2003-05-25T09:40:25Z</time>
      </trkpt>
      <trkpt lat="44.378264034166932" lon="11.379153728485107">
        <ele>233</ele>
        <time>2003-05-25T09:40:28Z</time>
      </trkpt>
      <trkpt lat="44.378457069396973" lon="11.379325389862061">
        <ele>230</ele>
        <time>2003-05-25T09:40:30Z</time>
      </trkpt>
      <trkpt lat="44.378628730773926" lon="11.379497135058045">
        <ele>227</ele>
        <time>2003-05-25T09:40:32Z</time>
      </trkpt>
      <trkpt lat="44.37877893447876" lon="11.379668712615967">
        <ele>222</ele>
        <time>2003-05-25T09:40:34Z</time>
      </trkpt>
      <trkpt lat="44.378929138183594" lon="11.37984037399292">
        <ele>219</ele>
        <time>2003-05-25T09:40:36Z</time>
      </trkpt>
      <trkpt lat="44.379079341888428" lon="11.380033493041992">
        <ele>215</ele>
        <time>2003-05-25T09:40:38Z</time>
      </trkpt>
      <trkpt lat="44.379165172576904" lon="11.380140781402588">
        <ele>211</ele>
        <time>2003-05-25T09:40:39Z</time>
      </trkpt>
      <trkpt lat="44.379251003265381" lon="11.380248069763184">
        <ele>208</ele>
        <time>2003-05-25T09:40:40Z</time>
      </trkpt>
      <trkpt lat="44.379379665479064" lon="11.380419731140137">
        <ele>203</ele>
        <time>2003-05-25T09:40:42Z</time>
      </trkpt>
      <trkpt lat="44.379444122314453" lon="11.380484104156494">
        <ele>200</ele>
        <time>2003-05-25T09:40:43Z</time>
      </trkpt>
      <trkpt lat="44.379487037658691" lon="11.380548477172852">
        <ele>197</ele>
        <time>2003-05-25T09:40:44Z</time>
      </trkpt>
      <trkpt lat="44.379787361249328" lon="11.380376815795898">
        <ele>191</ele>
        <time>2003-05-25T09:40:49Z</time>
      </trkpt>
      <trkpt lat="44.379830360412598" lon="11.380248069763184">
        <ele>191</ele>
        <time>2003-05-25T09:40:50Z</time>
      </trkpt>
      <trkpt lat="44.379980564117432" lon="11.379818916320801">
        <ele>189</ele>
        <time>2003-05-25T09:40:53Z</time>
      </trkpt>
      <trkpt lat="44.380173683166504" lon="11.379325389862061">
        <ele>184</ele>
        <time>2003-05-25T09:40:57Z</time>
      </trkpt>
      <trkpt lat="44.380195140838623" lon="11.379239559173584">
        <ele>182</ele>
        <time>2003-05-25T09:40:58Z</time>
      </trkpt>
      <trkpt lat="44.380452632904053" lon="11.379325389862061">
        <ele>176</ele>
        <time>2003-05-25T09:41:02Z</time>
      </trkpt>
      <trkpt lat="44.38051700592041" lon="11.379432678222656">
        <ele>176</ele>
        <time>2003-05-25T09:41:03Z</time>
      </trkpt>
      <trkpt lat="44.380753040313721" lon="11.379754459485412">
        <ele>170</ele>
        <time>2003-05-25T09:41:06Z</time>
      </trkpt>
      <trkpt lat="44.380924701690674" lon="11.379969120025635">
        <ele>167</ele>
        <time>2003-05-25T09:41:08Z</time>
      </trkpt>
      <trkpt lat="44.381096363067627" lon="11.380183696746826">
        <ele>161</ele>
        <time>2003-05-25T09:41:10Z</time>
      </trkpt>
      <trkpt lat="44.381225109100342" lon="11.380376815795898">
        <ele>157</ele>
        <time>2003-05-25T09:41:12Z</time>
      </trkpt>
      <trkpt lat="44.381353938952088" lon="11.380763137713075">
        <ele>152</ele>
        <time>2003-05-25T09:41:15Z</time>
      </trkpt>
      <trkpt lat="44.381289482116699" lon="11.381149291992188">
        <ele>149</ele>
        <time>2003-05-25T09:41:18Z</time>
      </trkpt>
      <trkpt lat="44.381053363904357" lon="11.381900310516357">
        <ele>146</ele>
        <time>2003-05-25T09:41:24Z</time>
      </trkpt>
      <trkpt lat="44.380924701690674" lon="11.38232946395874">
        <ele>142</ele>
        <time>2003-05-25T09:41:27Z</time>
      </trkpt>
      <trkpt lat="44.380881786346436" lon="11.382780075073242">
        <ele>136</ele>
        <time>2003-05-25T09:41:31Z</time>
      </trkpt>
      <trkpt lat="44.380903160199523" lon="11.382844364270568">
        <ele>136</ele>
        <time>2003-05-25T09:41:32Z</time>
      </trkpt>
      <trkpt lat="44.381096363067627" lon="11.382951736450195">
        <ele>135</ele>
        <time>2003-05-25T09:41:38Z</time>
      </trkpt>
      <trkpt lat="44.381182193756104" lon="11.382908821105957">
        <ele>134</ele>
        <time>2003-05-25T09:41:40Z</time>
      </trkpt>
      <trkpt lat="44.381546974182129" lon="11.382672786712646">
        <ele>133</ele>
        <time>2003-05-25T09:41:49Z</time>
      </trkpt>
      <trkpt lat="44.38231953419745" lon="11.382801532745361">
        <ele>132</ele>
        <time>2003-05-25T09:42:02Z</time>
      </trkpt>
      <trkpt lat="44.382426738739014" lon="11.382865905761719">
        <ele>132</ele>
        <time>2003-05-25T09:42:04Z</time>
      </trkpt>
      <trkpt lat="44.382534027099609" lon="11.382951736450195">
        <ele>132</ele>
        <time>2003-05-25T09:42:06Z</time>
      </trkpt>
      <trkpt lat="44.382684230804443" lon="11.38308048248291">
        <ele>133</ele>
        <time>2003-05-25T09:42:09Z</time>
      </trkpt>
      <trkpt lat="44.383370876312256" lon="11.383445262908936">
        <ele>133</ele>
        <time>2003-05-25T09:42:24Z</time>
      </trkpt>
      <trkpt lat="44.383864402770996" lon="11.384539604187012">
        <ele>131</ele>
        <time>2003-05-25T09:42:42Z</time>
      </trkpt>
      <trkpt lat="44.384572505950928" lon="11.385998725891113">
        <ele>127</ele>
        <time>2003-05-25T09:43:04Z</time>
      </trkpt>
      <trkpt lat="44.384679794311523" lon="11.386277675628662">
        <ele>127</ele>
        <time>2003-05-25T09:43:08Z</time>
      </trkpt>
      <trkpt lat="44.385237693786621" lon="11.386921405792236">
        <ele>126</ele>
        <time>2003-05-25T09:43:22Z</time>
      </trkpt>
      <trkpt lat="44.385430812835693" lon="11.386921405792236">
        <ele>126</ele>
        <time>2003-05-25T09:43:26Z</time>
      </trkpt>
      <trkpt lat="44.385838508605957" lon="11.386706829071045">
        <ele>126</ele>
        <time>2003-05-25T09:43:34Z</time>
      </trkpt>
      <trkpt lat="44.386117458343506" lon="11.386749660596251">
        <ele>126</ele>
        <time>2003-05-25T09:43:41Z</time>
      </trkpt>
      <trkpt lat="44.386375034227967" lon="11.387135982513428">
        <ele>125</ele>
        <time>2003-05-25T09:43:48Z</time>
      </trkpt>
      <trkpt lat="44.386546611785889" lon="11.387414932250977">
        <ele>125</ele>
        <time>2003-05-25T09:43:53Z</time>
      </trkpt>
      <trkpt lat="44.387040138244629" lon="11.387565135955811">
        <ele>124</ele>
        <time>2003-05-25T09:44:01Z</time>
      </trkpt>
      <trkpt lat="44.387555122375488" lon="11.38782262802124">
        <ele>124</ele>
        <time>2003-05-25T09:44:10Z</time>
      </trkpt>
      <trkpt lat="44.387726783752441" lon="11.388444900512695">
        <ele>124</ele>
        <time>2003-05-25T09:44:19Z</time>
      </trkpt>
      <trkpt lat="44.38776969909668" lon="11.388552188873291">
        <ele>125</ele>
        <time>2003-05-25T09:44:21Z</time>
      </trkpt>
      <trkpt lat="44.387962818145752" lon="11.388638019561768">
        <ele>124</ele>
        <time>2003-05-25T09:44:26Z</time>
      </trkpt>
      <trkpt lat="44.388349140062928" lon="11.388552188873291">
        <ele>125</ele>
        <time>2003-05-25T09:44:35Z</time>
      </trkpt>
      <trkpt lat="44.388434886932373" lon="11.388552188873291">
        <ele>125</ele>
        <time>2003-05-25T09:44:37Z</time>
      </trkpt>
      <trkpt lat="44.388585090637207" lon="11.388573562726378">
        <ele>125</ele>
        <time>2003-05-25T09:44:40Z</time>
      </trkpt>
      <trkpt lat="44.38927173614502" lon="11.388852596282959">
        <ele>124</ele>
        <time>2003-05-25T09:44:53Z</time>
      </trkpt>
      <trkpt lat="44.390408992767334" lon="11.388745307922363">
        <ele>123</ele>
        <time>2003-05-25T09:45:14Z</time>
      </trkpt>
      <trkpt lat="44.390623569488525" lon="11.38883113861084">
        <ele>122</ele>
        <time>2003-05-25T09:45:18Z</time>
      </trkpt>
      <trkpt lat="44.390773773193359" lon="11.388895511627197">
        <ele>122</ele>
        <time>2003-05-25T09:45:20Z</time>
      </trkpt>
      <trkpt lat="44.391031265258789" lon="11.389002799987793">
        <ele>121</ele>
        <time>2003-05-25T09:45:24Z</time>
      </trkpt>
      <trkpt lat="44.392147064208984" lon="11.388852596282959">
        <ele>120</ele>
        <time>2003-05-25T09:45:42Z</time>
      </trkpt>
      <trkpt lat="44.392211437225342" lon="11.38883113861084">
        <ele>119</ele>
        <time>2003-05-25T09:45:43Z</time>
      </trkpt>
      <trkpt lat="44.392426013946533" lon="11.388852596282959">
        <ele>120</ele>
        <time>2003-05-25T09:45:47Z</time>
      </trkpt>
      <trkpt lat="44.392490386962891" lon="11.388938426971436">
        <ele>119</ele>
        <time>2003-05-25T09:45:49Z</time>
      </trkpt>
      <trkpt lat="44.392576217651367" lon="11.38906717300415">
        <ele>120</ele>
        <time>2003-05-25T09:45:52Z</time>
      </trkpt>
      <trkpt lat="44.392640590667725" lon="11.389496326446533">
        <ele>118</ele>
        <time>2003-05-25T09:46:01Z</time>
      </trkpt>
      <trkpt lat="44.392640590667725" lon="11.389839565381408">
        <ele>118</ele>
        <time>2003-05-25T09:46:06Z</time>
      </trkpt>
      <trkpt lat="44.392619132995605" lon="11.389989936724305">
        <ele>118</ele>
        <time>2003-05-25T09:46:08Z</time>
      </trkpt>
      <trkpt lat="44.393305778503418" lon="11.39108419418335">
        <ele>118</ele>
        <time>2003-05-25T09:46:31Z</time>
      </trkpt>
      <trkpt lat="44.39401388168335" lon="11.391749382019043">
        <ele>117</ele>
        <time>2003-05-25T09:46:50Z</time>
      </trkpt>
      <trkpt lat="44.395301258191466" lon="11.392908096313477">
        <ele>117</ele>
        <time>2003-05-25T09:47:19Z</time>
      </trkpt>
      <trkpt lat="44.395752036944032" lon="11.393144130706787">
        <ele>117</ele>
        <time>2003-05-25T09:47:26Z</time>
      </trkpt>
      <trkpt lat="44.395987987518311" lon="11.393272876739502">
        <ele>116</ele>
        <time>2003-05-25T09:47:30Z</time>
      </trkpt>
      <trkpt lat="44.396224021911621" lon="11.393616199493408">
        <ele>115</ele>
        <time>2003-05-25T09:47:34Z</time>
      </trkpt>
      <trkpt lat="44.396395683288574" lon="11.39432430267334">
        <ele>116</ele>
        <time>2003-05-25T09:47:42Z</time>
      </trkpt>
      <trkpt lat="44.396653175354004" lon="11.394538879394531">
        <ele>116</ele>
        <time>2003-05-25T09:47:49Z</time>
      </trkpt>
      <trkpt lat="44.397211074829102" lon="11.394689083099365">
        <ele>115</ele>
        <time>2003-05-25T09:48:02Z</time>
      </trkpt>
      <trkpt lat="44.39725399017334" lon="11.394410133361816">
        <ele>115</ele>
        <time>2003-05-25T09:48:07Z</time>
      </trkpt>
      <trkpt lat="44.397232532501221" lon="11.394045436754823">
        <ele>114</ele>
        <time>2003-05-25T09:48:14Z</time>
      </trkpt>
      <trkpt lat="44.397275364026427" lon="11.393916606903076">
        <ele>114</ele>
        <time>2003-05-25T09:48:17Z</time>
      </trkpt>
      <trkpt lat="44.397082328796387" lon="11.393337165936828">
        <ele>114</ele>
        <time>2003-05-25T09:48:25Z</time>
      </trkpt>
      <trkpt lat="44.397082328796387" lon="11.393337165936828">
        <ele>114</ele>
        <time>2003-05-25T09:48:33Z</time>
      </trkpt>
      <trkpt lat="44.397082328796387" lon="11.393337165936828">
        <ele>114</ele>
        <time>2003-05-25T09:48:56Z</time>
      </trkpt>
      <trkpt lat="44.397082328796387" lon="11.393337165936828">
        <ele>114</ele>
        <time>2003-05-25T09:49:21Z</time>
      </trkpt>
      <trkpt lat="44.397082328796387" lon="11.393337165936828">
        <ele>112</ele>
        <time>2003-05-25T09:50:13Z</time>
      </trkpt>
      <trkpt lat="44.397082328796387" lon="11.393337165936828">
        <ele>114</ele>
        <time>2003-05-25T09:50:16Z</time>
      </trkpt>
      <trkpt lat="44.397082328796387" lon="11.393337165936828">
        <ele>114</ele>
        <time>2003-05-25T09:50:26Z</time>
      </trkpt>
    </trkseg>
  </trk>

  <trk>
    <name>Track 002</name>
    <trkseg>
      <trkpt lat="44.332430362701416" lon="11.360034858807921">
        <ele>349</ele>
        <time>1989-12-31T00:00:00Z</time>
      </trkpt>
      <trkpt lat="44.332709312438965" lon="11.360270977020264">
        <ele>349</ele>
        <time>2004-10-17T07:38:03Z</time>
      </trkpt>
      <trkpt lat="44.332773685455322" lon="11.360828876495361">
        <ele>352</ele>
        <time>2004-10-17T07:38:19Z</time>
      </trkpt>
      <trkpt lat="44.332516193389893" lon="11.361258029937744">
        <ele>351</ele>
        <time>2004-10-17T07:38:33Z</time>
      </trkpt>
      <trkpt lat="44.332301616668701" lon="11.361386775970459">
        <ele>351</ele>
        <time>2004-10-17T07:38:39Z</time>
      </trkpt>
      <trkpt lat="44.331915378570557" lon="11.361751640215516">
        <ele>348</ele>
        <time>2004-10-17T07:38:53Z</time>
      </trkpt>
      <trkpt lat="44.331614971160889" lon="11.361644268035889">
        <ele>348</ele>
        <time>2004-10-17T07:39:04Z</time>
      </trkpt>
      <trkpt lat="44.331421935930848" lon="11.361515522003174">
        <ele>346</ele>
        <time>2004-10-17T07:39:09Z</time>
      </trkpt>
      <trkpt lat="44.331121360883117" lon="11.361343860626221">
        <ele>343</ele>
        <time>2004-10-17T07:39:15Z</time>
      </trkpt>
      <trkpt lat="44.330928325653076" lon="11.361258029937744">
        <ele>341</ele>
        <time>2004-10-17T07:39:18Z</time>
      </trkpt>
      <trkpt lat="44.330735206604004" lon="11.361172199249268">
        <ele>340</ele>
        <time>2004-10-17T07:39:21Z</time>
      </trkpt>
      <trkpt lat="44.330456340685487" lon="11.361129283905029">
        <ele>335</ele>
        <time>2004-10-17T07:39:25Z</time>
      </trkpt>
      <trkpt lat="44.330391883850098" lon="11.361129283905029">
        <ele>334</ele>
        <time>2004-10-17T07:39:26Z</time>
      </trkpt>
      <trkpt lat="44.330306136980653" lon="11.361043537035584">
        <ele>331</ele>
        <time>2004-10-17T07:39:28Z</time>
      </trkpt>
      <trkpt lat="44.330263137817383" lon="11.360914707183838">
        <ele>331</ele>
        <time>2004-10-17T07:39:30Z</time>
      </trkpt>
      <trkpt lat="44.330112934112549" lon="11.360571384429932">
        <ele>330</ele>
        <time>2004-10-17T07:39:36Z</time>
      </trkpt>
      <trkpt lat="44.329984188079834" lon="11.360399723052979">
        <ele>330</ele>
        <time>2004-10-17T07:39:40Z</time>
      </trkpt>
      <trkpt lat="44.32957649230957" lon="11.360142230987549">
        <ele>326</ele>
        <time>2004-10-17T07:39:50Z</time>
      </trkpt>
      <trkpt lat="44.329147338867188" lon="11.359777534380555">
        <ele>326</ele>
        <time>2004-10-17T07:39:59Z</time>
      </trkpt>
      <trkpt lat="44.329104423522949" lon="11.359562873840332">
        <ele>325</ele>
        <time>2004-10-17T07:40:02Z</time>
      </trkpt>
      <trkpt lat="44.329018592834473" lon="11.358640193939209">
        <ele>326</ele>
        <time>2004-10-17T07:40:16Z</time>
      </trkpt>
      <trkpt lat="44.328889762982726" lon="11.358339786529541">
        <ele>328</ele>
        <time>2004-10-17T07:40:24Z</time>
      </trkpt>
      <trkpt lat="44.328761100769043" lon="11.358211040496826">
        <ele>332</ele>
        <time>2004-10-17T07:40:34Z</time>
      </trkpt>
      <trkpt lat="44.328610897064209" lon="11.358489990234375">
        <ele>334</ele>
        <time>2004-10-17T07:40:52Z</time>
      </trkpt>
      <trkpt lat="44.32858943939209" lon="11.358597278594971">
        <ele>335</ele>
        <time>2004-10-17T07:41:00Z</time>
      </trkpt>
      <trkpt lat="44.328503608703613" lon="11.35911226272583">
        <ele>338</ele>
        <time>2004-10-17T07:41:19Z</time>
      </trkpt>
      <trkpt lat="44.328610897064209" lon="11.359713077545166">
        <ele>341</ele>
        <time>2004-10-17T07:41:32Z</time>
      </trkpt>
      <trkpt lat="44.328718185424805" lon="11.360313892364502">
        <ele>344</ele>
        <time>2004-10-17T07:41:49Z</time>
      </trkpt>
      <trkpt lat="44.328675270080566" lon="11.361021995544434">
        <ele>347</ele>
        <time>2004-10-17T07:42:11Z</time>
      </trkpt>
      <trkpt lat="44.328675270080566" lon="11.361043537035584">
        <ele>347</ele>
        <time>2004-10-17T07:42:12Z</time>
      </trkpt>
      <trkpt lat="44.328718185424805" lon="11.361429691314697">
        <ele>350</ele>
        <time>2004-10-17T07:42:27Z</time>
      </trkpt>
      <trkpt lat="44.328718185424805" lon="11.361515522003174">
        <ele>351</ele>
        <time>2004-10-17T07:42:30Z</time>
      </trkpt>
      <trkpt lat="44.328567981719971" lon="11.361837387084961">
        <ele>354</ele>
        <time>2004-10-17T07:42:42Z</time>
      </trkpt>
      <trkpt lat="44.328439235687256" lon="11.362202167510986">
        <ele>358</ele>
        <time>2004-10-17T07:42:58Z</time>
      </trkpt>
      <trkpt lat="44.328482234850526" lon="11.362674236297607">
        <ele>359</ele>
        <time>2004-10-17T07:43:12Z</time>
      </trkpt>
      <trkpt lat="44.328460693359375" lon="11.36310338973999">
        <ele>362</ele>
        <time>2004-10-17T07:43:27Z</time>
      </trkpt>
      <trkpt lat="44.328439235687256" lon="11.363489627838135">
        <ele>365</ele>
        <time>2004-10-17T07:43:40Z</time>
      </trkpt>
      <trkpt lat="44.32844921015203" lon="11.363569339737296">
        <ele>365</ele>
        <time>1989-12-31T00:00:00Z</time>
      </trkpt>
    </trkseg>
  </trk>

</gpx>
